<?xml version="1.0" encoding="UTF-8" standalone="no" ?>
<gpx xmlns="http://www.topografix.com/GPX/1/1" xmlns:xsi="http://www.w3.org/2001/XMLSchema-instance" xsi:schemaLocation="http://www.topografix.com/GPX/1/1 http://www.topografix.com/GPX/1/1/gpx.xsd" version="1.1" creator="VisuGPX - https://www.visugpx.com">
  <metadata>
    <name>La mini Raid dingue</name>
    <desc><![CDATA[La mini raid dingue est un trail nocturne découverte(ouverte à tous) ]]></desc>
  </metadata>
  <trk>
    <name><![CDATA[reconnaissance de la petite raid dingue]]></name>
    <desc><![CDATA[T°8,terrain gras sous un beau soleil,douleur genoux gauche aprés 5' de chauffe sniff]]></desc>
    <trkseg>
      <trkpt lat="48.90238" lon="1.28206">
        <ele>142.80000305176</ele>
        <time>2012-02-20T13:47:15.000Z</time>
      </trkpt>
      <trkpt lat="48.90232" lon="1.28227">
        <ele>142.60000610352</ele>
        <time>2012-02-20T13:47:20.000Z</time>
      </trkpt>
      <trkpt lat="48.90228" lon="1.28251">
        <ele>142.60000610352</ele>
        <time>2012-02-20T13:47:26.000Z</time>
      </trkpt>
      <trkpt lat="48.90224" lon="1.28276">
        <ele>142.60000610352</ele>
        <time>2012-02-20T13:47:32.000Z</time>
      </trkpt>
      <trkpt lat="48.9022" lon="1.28289">
        <ele>142.60000610352</ele>
        <time>2012-02-20T13:47:36.000Z</time>
      </trkpt>
      <trkpt lat="48.90215" lon="1.28308">
        <ele>142.60000610352</ele>
        <time>2012-02-20T13:47:41.000Z</time>
      </trkpt>
      <trkpt lat="48.90209" lon="1.28333">
        <ele>142.39999389648</ele>
        <time>2012-02-20T13:47:47.000Z</time>
      </trkpt>
      <trkpt lat="48.90206" lon="1.2835">
        <ele>142.60000610352</ele>
        <time>2012-02-20T13:47:51.000Z</time>
      </trkpt>
      <trkpt lat="48.90201" lon="1.28366">
        <ele>142.60000610352</ele>
        <time>2012-02-20T13:47:55.000Z</time>
      </trkpt>
      <trkpt lat="48.90198" lon="1.28386">
        <ele>142.39999389648</ele>
        <time>2012-02-20T13:48:00.000Z</time>
      </trkpt>
      <trkpt lat="48.90196" lon="1.28396">
        <ele>142.39999389648</ele>
        <time>2012-02-20T13:48:04.000Z</time>
      </trkpt>
      <trkpt lat="48.90192" lon="1.28414">
        <ele>142.39999389648</ele>
        <time>2012-02-20T13:48:08.000Z</time>
      </trkpt>
      <trkpt lat="48.90188" lon="1.28437">
        <ele>142.39999389648</ele>
        <time>2012-02-20T13:48:13.000Z</time>
      </trkpt>
      <trkpt lat="48.90184" lon="1.28453">
        <ele>142.60000610352</ele>
        <time>2012-02-20T13:48:17.000Z</time>
      </trkpt>
      <trkpt lat="48.90177" lon="1.28481">
        <ele>142.80000305176</ele>
        <time>2012-02-20T13:48:24.000Z</time>
      </trkpt>
      <trkpt lat="48.90176" lon="1.28486">
        <ele>142.80000305176</ele>
        <time>2012-02-20T13:48:25.000Z</time>
      </trkpt>
      <trkpt lat="48.90171" lon="1.28506">
        <ele>143</ele>
        <time>2012-02-20T13:48:30.000Z</time>
      </trkpt>
      <trkpt lat="48.90164" lon="1.2853">
        <ele>142.60000610352</ele>
        <time>2012-02-20T13:48:36.000Z</time>
      </trkpt>
      <trkpt lat="48.90159" lon="1.28549">
        <ele>142.39999389648</ele>
        <time>2012-02-20T13:48:41.000Z</time>
      </trkpt>
      <trkpt lat="48.90153" lon="1.28569">
        <ele>142</ele>
        <time>2012-02-20T13:48:46.000Z</time>
      </trkpt>
      <trkpt lat="48.90148" lon="1.28588">
        <ele>141.60000610352</ele>
        <time>2012-02-20T13:48:51.000Z</time>
      </trkpt>
      <trkpt lat="48.90142" lon="1.28613">
        <ele>141.19999694824</ele>
        <time>2012-02-20T13:48:57.000Z</time>
      </trkpt>
      <trkpt lat="48.90138" lon="1.28629">
        <ele>140.80000305176</ele>
        <time>2012-02-20T13:49:01.000Z</time>
      </trkpt>
      <trkpt lat="48.90131" lon="1.28649">
        <ele>140.39999389648</ele>
        <time>2012-02-20T13:49:06.000Z</time>
      </trkpt>
      <trkpt lat="48.90131" lon="1.28653">
        <ele>140.19999694824</ele>
        <time>2012-02-20T13:49:07.000Z</time>
      </trkpt>
      <trkpt lat="48.90128" lon="1.28665">
        <ele>140</ele>
        <time>2012-02-20T13:49:10.000Z</time>
      </trkpt>
      <trkpt lat="48.90125" lon="1.28676">
        <ele>140</ele>
        <time>2012-02-20T13:49:14.000Z</time>
      </trkpt>
      <trkpt lat="48.90121" lon="1.28689">
        <ele>140</ele>
        <time>2012-02-20T13:49:18.000Z</time>
      </trkpt>
      <trkpt lat="48.90114" lon="1.2871">
        <ele>140</ele>
        <time>2012-02-20T13:49:23.000Z</time>
      </trkpt>
      <trkpt lat="48.90107" lon="1.28729">
        <ele>140</ele>
        <time>2012-02-20T13:49:28.000Z</time>
      </trkpt>
      <trkpt lat="48.90099" lon="1.28752">
        <ele>140</ele>
        <time>2012-02-20T13:49:34.000Z</time>
      </trkpt>
      <trkpt lat="48.90091" lon="1.28777">
        <ele>139.80000305176</ele>
        <time>2012-02-20T13:49:40.000Z</time>
      </trkpt>
      <trkpt lat="48.90085" lon="1.28798">
        <ele>139.39999389648</ele>
        <time>2012-02-20T13:49:45.000Z</time>
      </trkpt>
      <trkpt lat="48.90076" lon="1.28822">
        <ele>139</ele>
        <time>2012-02-20T13:49:51.000Z</time>
      </trkpt>
      <trkpt lat="48.9007" lon="1.2884">
        <ele>138.80000305176</ele>
        <time>2012-02-20T13:49:56.000Z</time>
      </trkpt>
      <trkpt lat="48.90061" lon="1.28858">
        <ele>138.39999389648</ele>
        <time>2012-02-20T13:50:01.000Z</time>
      </trkpt>
      <trkpt lat="48.90052" lon="1.2888">
        <ele>138</ele>
        <time>2012-02-20T13:50:06.000Z</time>
      </trkpt>
      <trkpt lat="48.90044" lon="1.28899">
        <ele>137.80000305176</ele>
        <time>2012-02-20T13:50:11.000Z</time>
      </trkpt>
      <trkpt lat="48.90037" lon="1.28914">
        <ele>137.39999389648</ele>
        <time>2012-02-20T13:50:15.000Z</time>
      </trkpt>
      <trkpt lat="48.90028" lon="1.28932">
        <ele>137.39999389648</ele>
        <time>2012-02-20T13:50:20.000Z</time>
      </trkpt>
      <trkpt lat="48.9002" lon="1.28952">
        <ele>137.19999694824</ele>
        <time>2012-02-20T13:50:25.000Z</time>
      </trkpt>
      <trkpt lat="48.90012" lon="1.28966">
        <ele>137.19999694824</ele>
        <time>2012-02-20T13:50:29.000Z</time>
      </trkpt>
      <trkpt lat="48.90005" lon="1.28979">
        <ele>137</ele>
        <time>2012-02-20T13:50:33.000Z</time>
      </trkpt>
      <trkpt lat="48.89999" lon="1.28991">
        <ele>137</ele>
        <time>2012-02-20T13:50:37.000Z</time>
      </trkpt>
      <trkpt lat="48.89989" lon="1.29011">
        <ele>136.80000305176</ele>
        <time>2012-02-20T13:50:42.000Z</time>
      </trkpt>
      <trkpt lat="48.89979" lon="1.29034">
        <ele>136.39999389648</ele>
        <time>2012-02-20T13:50:48.000Z</time>
      </trkpt>
      <trkpt lat="48.89971" lon="1.29056">
        <ele>136.19999694824</ele>
        <time>2012-02-20T13:50:54.000Z</time>
      </trkpt>
      <trkpt lat="48.89963" lon="1.29075">
        <ele>136</ele>
        <time>2012-02-20T13:50:59.000Z</time>
      </trkpt>
      <trkpt lat="48.89953" lon="1.29102">
        <ele>136.19999694824</ele>
        <time>2012-02-20T13:51:06.000Z</time>
      </trkpt>
      <trkpt lat="48.89952" lon="1.29106">
        <ele>136.39999389648</ele>
        <time>2012-02-20T13:51:07.000Z</time>
      </trkpt>
      <trkpt lat="48.89943" lon="1.2913">
        <ele>136.80000305176</ele>
        <time>2012-02-20T13:51:13.000Z</time>
      </trkpt>
      <trkpt lat="48.89935" lon="1.2915">
        <ele>137.19999694824</ele>
        <time>2012-02-20T13:51:18.000Z</time>
      </trkpt>
      <trkpt lat="48.8993" lon="1.29166">
        <ele>137.60000610352</ele>
        <time>2012-02-20T13:51:22.000Z</time>
      </trkpt>
      <trkpt lat="48.89925" lon="1.29179">
        <ele>138.80000305176</ele>
        <time>2012-02-20T13:51:26.000Z</time>
      </trkpt>
      <trkpt lat="48.89917" lon="1.29198">
        <ele>140.19999694824</ele>
        <time>2012-02-20T13:51:31.000Z</time>
      </trkpt>
      <trkpt lat="48.89908" lon="1.29216">
        <ele>141.19999694824</ele>
        <time>2012-02-20T13:51:37.000Z</time>
      </trkpt>
      <trkpt lat="48.899" lon="1.2923">
        <ele>141.60000610352</ele>
        <time>2012-02-20T13:51:42.000Z</time>
      </trkpt>
      <trkpt lat="48.89895" lon="1.29245">
        <ele>142.39999389648</ele>
        <time>2012-02-20T13:51:47.000Z</time>
      </trkpt>
      <trkpt lat="48.89889" lon="1.29262">
        <ele>142.80000305176</ele>
        <time>2012-02-20T13:51:53.000Z</time>
      </trkpt>
      <trkpt lat="48.89884" lon="1.2927">
        <ele>142.80000305176</ele>
        <time>2012-02-20T13:51:57.000Z</time>
      </trkpt>
      <trkpt lat="48.89872" lon="1.29269">
        <ele>142</ele>
        <time>2012-02-20T13:52:01.000Z</time>
      </trkpt>
      <trkpt lat="48.89858" lon="1.2927">
        <ele>141.19999694824</ele>
        <time>2012-02-20T13:52:06.000Z</time>
      </trkpt>
      <trkpt lat="48.89855" lon="1.2927">
        <ele>141</ele>
        <time>2012-02-20T13:52:07.000Z</time>
      </trkpt>
      <trkpt lat="48.89839" lon="1.29279">
        <ele>140.39999389648</ele>
        <time>2012-02-20T13:52:12.000Z</time>
      </trkpt>
      <trkpt lat="48.89828" lon="1.29292">
        <ele>140.19999694824</ele>
        <time>2012-02-20T13:52:17.000Z</time>
      </trkpt>
      <trkpt lat="48.8982" lon="1.29308">
        <ele>140</ele>
        <time>2012-02-20T13:52:22.000Z</time>
      </trkpt>
      <trkpt lat="48.89817" lon="1.2932">
        <ele>140.19999694824</ele>
        <time>2012-02-20T13:52:27.000Z</time>
      </trkpt>
      <trkpt lat="48.89811" lon="1.2933">
        <ele>140</ele>
        <time>2012-02-20T13:52:31.000Z</time>
      </trkpt>
      <trkpt lat="48.8981" lon="1.29343">
        <ele>140.19999694824</ele>
        <time>2012-02-20T13:52:35.000Z</time>
      </trkpt>
      <trkpt lat="48.89799" lon="1.29358">
        <ele>139.39999389648</ele>
        <time>2012-02-20T13:52:39.000Z</time>
      </trkpt>
      <trkpt lat="48.89798" lon="1.29376">
        <ele>139.60000610352</ele>
        <time>2012-02-20T13:52:43.000Z</time>
      </trkpt>
      <trkpt lat="48.898" lon="1.29379">
        <ele>139.80000305176</ele>
        <time>2012-02-20T13:52:44.000Z</time>
      </trkpt>
      <trkpt lat="48.89801" lon="1.29387">
        <ele>140</ele>
        <time>2012-02-20T13:52:46.000Z</time>
      </trkpt>
      <trkpt lat="48.89799" lon="1.29392">
        <ele>139.80000305176</ele>
        <time>2012-02-20T13:52:47.000Z</time>
      </trkpt>
      <trkpt lat="48.898" lon="1.29409">
        <ele>140</ele>
        <time>2012-02-20T13:52:51.000Z</time>
      </trkpt>
      <trkpt lat="48.89798" lon="1.29413">
        <ele>140</ele>
        <time>2012-02-20T13:52:52.000Z</time>
      </trkpt>
      <trkpt lat="48.89797" lon="1.29424">
        <ele>140</ele>
        <time>2012-02-20T13:52:55.000Z</time>
      </trkpt>
      <trkpt lat="48.89798" lon="1.29428">
        <ele>140.19999694824</ele>
        <time>2012-02-20T13:52:56.000Z</time>
      </trkpt>
      <trkpt lat="48.89799" lon="1.29441">
        <ele>140.39999389648</ele>
        <time>2012-02-20T13:52:59.000Z</time>
      </trkpt>
      <trkpt lat="48.89799" lon="1.29445">
        <ele>140.39999389648</ele>
        <time>2012-02-20T13:53:00.000Z</time>
      </trkpt>
      <trkpt lat="48.89798" lon="1.29475">
        <ele>140.80000305176</ele>
        <time>2012-02-20T13:53:06.000Z</time>
      </trkpt>
      <trkpt lat="48.898" lon="1.29493">
        <ele>141.19999694824</ele>
        <time>2012-02-20T13:53:10.000Z</time>
      </trkpt>
      <trkpt lat="48.89804" lon="1.29518">
        <ele>141.19999694824</ele>
        <time>2012-02-20T13:53:16.000Z</time>
      </trkpt>
      <trkpt lat="48.89805" lon="1.29522">
        <ele>141.19999694824</ele>
        <time>2012-02-20T13:53:17.000Z</time>
      </trkpt>
      <trkpt lat="48.89806" lon="1.29541">
        <ele>140.80000305176</ele>
        <time>2012-02-20T13:53:21.000Z</time>
      </trkpt>
      <trkpt lat="48.89805" lon="1.29545">
        <ele>140.80000305176</ele>
        <time>2012-02-20T13:53:22.000Z</time>
      </trkpt>
      <trkpt lat="48.89804" lon="1.2956">
        <ele>140.39999389648</ele>
        <time>2012-02-20T13:53:25.000Z</time>
      </trkpt>
      <trkpt lat="48.89808" lon="1.29574">
        <ele>140.39999389648</ele>
        <time>2012-02-20T13:53:28.000Z</time>
      </trkpt>
      <trkpt lat="48.89809" lon="1.29582">
        <ele>140.39999389648</ele>
        <time>2012-02-20T13:53:30.000Z</time>
      </trkpt>
      <trkpt lat="48.89808" lon="1.29585">
        <ele>140.39999389648</ele>
        <time>2012-02-20T13:53:31.000Z</time>
      </trkpt>
      <trkpt lat="48.89807" lon="1.29605">
        <ele>140.80000305176</ele>
        <time>2012-02-20T13:53:35.000Z</time>
      </trkpt>
      <trkpt lat="48.89806" lon="1.29609">
        <ele>140.80000305176</ele>
        <time>2012-02-20T13:53:36.000Z</time>
      </trkpt>
      <trkpt lat="48.89802" lon="1.29621">
        <ele>140.80000305176</ele>
        <time>2012-02-20T13:53:39.000Z</time>
      </trkpt>
      <trkpt lat="48.89794" lon="1.29644">
        <ele>140.60000610352</ele>
        <time>2012-02-20T13:53:44.000Z</time>
      </trkpt>
      <trkpt lat="48.89785" lon="1.29653">
        <ele>140</ele>
        <time>2012-02-20T13:53:48.000Z</time>
      </trkpt>
      <trkpt lat="48.89777" lon="1.2966">
        <ele>139.39999389648</ele>
        <time>2012-02-20T13:53:52.000Z</time>
      </trkpt>
      <trkpt lat="48.89775" lon="1.29663">
        <ele>139.19999694824</ele>
        <time>2012-02-20T13:53:53.000Z</time>
      </trkpt>
      <trkpt lat="48.89774" lon="1.29677">
        <ele>139.80000305176</ele>
        <time>2012-02-20T13:53:57.000Z</time>
      </trkpt>
      <trkpt lat="48.89774" lon="1.29681">
        <ele>140</ele>
        <time>2012-02-20T13:53:58.000Z</time>
      </trkpt>
      <trkpt lat="48.89771" lon="1.29693">
        <ele>140.19999694824</ele>
        <time>2012-02-20T13:54:03.000Z</time>
      </trkpt>
      <trkpt lat="48.8976" lon="1.29706">
        <ele>140</ele>
        <time>2012-02-20T13:54:09.000Z</time>
      </trkpt>
      <trkpt lat="48.8975" lon="1.29713">
        <ele>139.80000305176</ele>
        <time>2012-02-20T13:54:13.000Z</time>
      </trkpt>
      <trkpt lat="48.89748" lon="1.29714">
        <ele>139.60000610352</ele>
        <time>2012-02-20T13:54:14.000Z</time>
      </trkpt>
      <trkpt lat="48.89734" lon="1.29724">
        <ele>139.19999694824</ele>
        <time>2012-02-20T13:54:18.000Z</time>
      </trkpt>
      <trkpt lat="48.89727" lon="1.29729">
        <ele>138.80000305176</ele>
        <time>2012-02-20T13:54:21.000Z</time>
      </trkpt>
      <trkpt lat="48.89724" lon="1.29731">
        <ele>138.60000610352</ele>
        <time>2012-02-20T13:54:22.000Z</time>
      </trkpt>
      <trkpt lat="48.89716" lon="1.29739">
        <ele>138.19999694824</ele>
        <time>2012-02-20T13:54:26.000Z</time>
      </trkpt>
      <trkpt lat="48.89714" lon="1.2974">
        <ele>138</ele>
        <time>2012-02-20T13:54:27.000Z</time>
      </trkpt>
      <trkpt lat="48.89703" lon="1.29749">
        <ele>137.39999389648</ele>
        <time>2012-02-20T13:54:32.000Z</time>
      </trkpt>
      <trkpt lat="48.89692" lon="1.29762">
        <ele>137.19999694824</ele>
        <time>2012-02-20T13:54:37.000Z</time>
      </trkpt>
      <trkpt lat="48.8968" lon="1.29772">
        <ele>136.80000305176</ele>
        <time>2012-02-20T13:54:41.000Z</time>
      </trkpt>
      <trkpt lat="48.89673" lon="1.29783">
        <ele>136.80000305176</ele>
        <time>2012-02-20T13:54:45.000Z</time>
      </trkpt>
      <trkpt lat="48.89664" lon="1.29795">
        <ele>137.19999694824</ele>
        <time>2012-02-20T13:54:49.000Z</time>
      </trkpt>
      <trkpt lat="48.89663" lon="1.29799">
        <ele>137.19999694824</ele>
        <time>2012-02-20T13:54:50.000Z</time>
      </trkpt>
      <trkpt lat="48.89657" lon="1.29809">
        <ele>137.60000610352</ele>
        <time>2012-02-20T13:54:53.000Z</time>
      </trkpt>
      <trkpt lat="48.89654" lon="1.29815">
        <ele>137.60000610352</ele>
        <time>2012-02-20T13:54:55.000Z</time>
      </trkpt>
      <trkpt lat="48.89646" lon="1.29831">
        <ele>137.80000305176</ele>
        <time>2012-02-20T13:55:00.000Z</time>
      </trkpt>
      <trkpt lat="48.8964" lon="1.29843">
        <ele>138</ele>
        <time>2012-02-20T13:55:04.000Z</time>
      </trkpt>
      <trkpt lat="48.89639" lon="1.29849">
        <ele>138.19999694824</ele>
        <time>2012-02-20T13:55:05.000Z</time>
      </trkpt>
      <trkpt lat="48.89632" lon="1.29869">
        <ele>138.39999389648</ele>
        <time>2012-02-20T13:55:09.000Z</time>
      </trkpt>
      <trkpt lat="48.89622" lon="1.29889">
        <ele>138.39999389648</ele>
        <time>2012-02-20T13:55:14.000Z</time>
      </trkpt>
      <trkpt lat="48.89614" lon="1.299">
        <ele>138</ele>
        <time>2012-02-20T13:55:18.000Z</time>
      </trkpt>
      <trkpt lat="48.89604" lon="1.29909">
        <ele>137.19999694824</ele>
        <time>2012-02-20T13:55:22.000Z</time>
      </trkpt>
      <trkpt lat="48.89601" lon="1.29911">
        <ele>137</ele>
        <time>2012-02-20T13:55:23.000Z</time>
      </trkpt>
      <trkpt lat="48.8959" lon="1.29927">
        <ele>136.80000305176</ele>
        <time>2012-02-20T13:55:28.000Z</time>
      </trkpt>
      <trkpt lat="48.8958" lon="1.29937">
        <ele>137</ele>
        <time>2012-02-20T13:55:32.000Z</time>
      </trkpt>
      <trkpt lat="48.89573" lon="1.29941">
        <ele>137</ele>
        <time>2012-02-20T13:55:35.000Z</time>
      </trkpt>
      <trkpt lat="48.8957" lon="1.29941">
        <ele>136.80000305176</ele>
        <time>2012-02-20T13:55:36.000Z</time>
      </trkpt>
      <trkpt lat="48.89564" lon="1.29948">
        <ele>137.19999694824</ele>
        <time>2012-02-20T13:55:39.000Z</time>
      </trkpt>
      <trkpt lat="48.89563" lon="1.29952">
        <ele>137.60000610352</ele>
        <time>2012-02-20T13:55:40.000Z</time>
      </trkpt>
      <trkpt lat="48.89556" lon="1.29964">
        <ele>138.39999389648</ele>
        <time>2012-02-20T13:55:44.000Z</time>
      </trkpt>
      <trkpt lat="48.89554" lon="1.2997">
        <ele>138.80000305176</ele>
        <time>2012-02-20T13:55:47.000Z</time>
      </trkpt>
      <trkpt lat="48.89552" lon="1.29971">
        <ele>138.80000305176</ele>
        <time>2012-02-20T13:55:48.000Z</time>
      </trkpt>
      <trkpt lat="48.8954" lon="1.29976">
        <ele>138.39999389648</ele>
        <time>2012-02-20T13:55:52.000Z</time>
      </trkpt>
      <trkpt lat="48.89527" lon="1.29981">
        <ele>138</ele>
        <time>2012-02-20T13:55:57.000Z</time>
      </trkpt>
      <trkpt lat="48.89512" lon="1.29986">
        <ele>137.39999389648</ele>
        <time>2012-02-20T13:56:01.000Z</time>
      </trkpt>
      <trkpt lat="48.89508" lon="1.29985">
        <ele>137.19999694824</ele>
        <time>2012-02-20T13:56:02.000Z</time>
      </trkpt>
      <trkpt lat="48.89499" lon="1.29988">
        <ele>136.80000305176</ele>
        <time>2012-02-20T13:56:05.000Z</time>
      </trkpt>
      <trkpt lat="48.89492" lon="1.29988">
        <ele>136.80000305176</ele>
        <time>2012-02-20T13:56:07.000Z</time>
      </trkpt>
      <trkpt lat="48.89479" lon="1.29988">
        <ele>136.60000610352</ele>
        <time>2012-02-20T13:56:12.000Z</time>
      </trkpt>
      <trkpt lat="48.89467" lon="1.29991">
        <ele>136.80000305176</ele>
        <time>2012-02-20T13:56:16.000Z</time>
      </trkpt>
      <trkpt lat="48.89461" lon="1.2999">
        <ele>136.60000610352</ele>
        <time>2012-02-20T13:56:18.000Z</time>
      </trkpt>
      <trkpt lat="48.89456" lon="1.29987">
        <ele>136.19999694824</ele>
        <time>2012-02-20T13:56:20.000Z</time>
      </trkpt>
      <trkpt lat="48.89445" lon="1.29981">
        <ele>135.60000610352</ele>
        <time>2012-02-20T13:56:24.000Z</time>
      </trkpt>
      <trkpt lat="48.89433" lon="1.29969">
        <ele>134.19999694824</ele>
        <time>2012-02-20T13:56:28.000Z</time>
      </trkpt>
      <trkpt lat="48.89422" lon="1.29967">
        <ele>133.80000305176</ele>
        <time>2012-02-20T13:56:32.000Z</time>
      </trkpt>
      <trkpt lat="48.8941" lon="1.29962">
        <ele>133</ele>
        <time>2012-02-20T13:56:36.000Z</time>
      </trkpt>
      <trkpt lat="48.89404" lon="1.29963">
        <ele>133</ele>
        <time>2012-02-20T13:56:38.000Z</time>
      </trkpt>
      <trkpt lat="48.89402" lon="1.29967">
        <ele>133.19999694824</ele>
        <time>2012-02-20T13:56:40.000Z</time>
      </trkpt>
      <trkpt lat="48.89402" lon="1.29974">
        <ele>133.80000305176</ele>
        <time>2012-02-20T13:56:44.000Z</time>
      </trkpt>
      <trkpt lat="48.89398" lon="1.29982">
        <ele>134.39999389648</ele>
        <time>2012-02-20T13:56:48.000Z</time>
      </trkpt>
      <trkpt lat="48.89397" lon="1.29986">
        <ele>134.60000610352</ele>
        <time>2012-02-20T13:56:50.000Z</time>
      </trkpt>
      <trkpt lat="48.89393" lon="1.29997">
        <ele>135.39999389648</ele>
        <time>2012-02-20T13:56:54.000Z</time>
      </trkpt>
      <trkpt lat="48.89389" lon="1.30004">
        <ele>135.60000610352</ele>
        <time>2012-02-20T13:56:57.000Z</time>
      </trkpt>
      <trkpt lat="48.89384" lon="1.30007">
        <ele>135.39999389648</ele>
        <time>2012-02-20T13:57:00.000Z</time>
      </trkpt>
      <trkpt lat="48.89374" lon="1.30002">
        <ele>134.60000610352</ele>
        <time>2012-02-20T13:57:04.000Z</time>
      </trkpt>
      <trkpt lat="48.89371" lon="1.3">
        <ele>134.19999694824</ele>
        <time>2012-02-20T13:57:05.000Z</time>
      </trkpt>
      <trkpt lat="48.89361" lon="1.29993">
        <ele>133.19999694824</ele>
        <time>2012-02-20T13:57:09.000Z</time>
      </trkpt>
      <trkpt lat="48.89345" lon="1.29989">
        <ele>132</ele>
        <time>2012-02-20T13:57:14.000Z</time>
      </trkpt>
      <trkpt lat="48.8933" lon="1.29985">
        <ele>131.19999694824</ele>
        <time>2012-02-20T13:57:19.000Z</time>
      </trkpt>
      <trkpt lat="48.89329" lon="1.29983">
        <ele>131</ele>
        <time>2012-02-20T13:57:20.000Z</time>
      </trkpt>
      <trkpt lat="48.89329" lon="1.29975">
        <ele>130.80000305176</ele>
        <time>2012-02-20T13:57:22.000Z</time>
      </trkpt>
      <trkpt lat="48.89332" lon="1.29964">
        <ele>130.19999694824</ele>
        <time>2012-02-20T13:57:25.000Z</time>
      </trkpt>
      <trkpt lat="48.89335" lon="1.29956">
        <ele>130</ele>
        <time>2012-02-20T13:57:27.000Z</time>
      </trkpt>
      <trkpt lat="48.89341" lon="1.29939">
        <ele>129.19999694824</ele>
        <time>2012-02-20T13:57:32.000Z</time>
      </trkpt>
      <trkpt lat="48.89348" lon="1.29924">
        <ele>128.60000610352</ele>
        <time>2012-02-20T13:57:36.000Z</time>
      </trkpt>
      <trkpt lat="48.89354" lon="1.29903">
        <ele>128.39999389648</ele>
        <time>2012-02-20T13:57:41.000Z</time>
      </trkpt>
      <trkpt lat="48.89358" lon="1.29886">
        <ele>128.60000610352</ele>
        <time>2012-02-20T13:57:46.000Z</time>
      </trkpt>
      <trkpt lat="48.89362" lon="1.29866">
        <ele>129</ele>
        <time>2012-02-20T13:57:51.000Z</time>
      </trkpt>
      <trkpt lat="48.89365" lon="1.29846">
        <ele>129.19999694824</ele>
        <time>2012-02-20T13:57:56.000Z</time>
      </trkpt>
      <trkpt lat="48.89368" lon="1.29828">
        <ele>129.60000610352</ele>
        <time>2012-02-20T13:58:00.000Z</time>
      </trkpt>
      <trkpt lat="48.89371" lon="1.29804">
        <ele>130.39999389648</ele>
        <time>2012-02-20T13:58:06.000Z</time>
      </trkpt>
      <trkpt lat="48.89373" lon="1.29784">
        <ele>131</ele>
        <time>2012-02-20T13:58:11.000Z</time>
      </trkpt>
      <trkpt lat="48.89377" lon="1.29757">
        <ele>131.80000305176</ele>
        <time>2012-02-20T13:58:18.000Z</time>
      </trkpt>
      <trkpt lat="48.89379" lon="1.29734">
        <ele>132.39999389648</ele>
        <time>2012-02-20T13:58:24.000Z</time>
      </trkpt>
      <trkpt lat="48.89377" lon="1.29715">
        <ele>132.80000305176</ele>
        <time>2012-02-20T13:58:29.000Z</time>
      </trkpt>
      <trkpt lat="48.89376" lon="1.29694">
        <ele>133.39999389648</ele>
        <time>2012-02-20T13:58:35.000Z</time>
      </trkpt>
      <trkpt lat="48.89376" lon="1.29676">
        <ele>133.80000305176</ele>
        <time>2012-02-20T13:58:40.000Z</time>
      </trkpt>
      <trkpt lat="48.89374" lon="1.2966">
        <ele>134.19999694824</ele>
        <time>2012-02-20T13:58:45.000Z</time>
      </trkpt>
      <trkpt lat="48.89373" lon="1.29654">
        <ele>134.19999694824</ele>
        <time>2012-02-20T13:58:47.000Z</time>
      </trkpt>
      <trkpt lat="48.89372" lon="1.2964">
        <ele>134.39999389648</ele>
        <time>2012-02-20T13:58:50.000Z</time>
      </trkpt>
      <trkpt lat="48.89372" lon="1.29631">
        <ele>134.60000610352</ele>
        <time>2012-02-20T13:58:52.000Z</time>
      </trkpt>
      <trkpt lat="48.89372" lon="1.29605">
        <ele>135</ele>
        <time>2012-02-20T13:58:58.000Z</time>
      </trkpt>
      <trkpt lat="48.89371" lon="1.29601">
        <ele>135.19999694824</ele>
        <time>2012-02-20T13:58:59.000Z</time>
      </trkpt>
      <trkpt lat="48.89366" lon="1.29589">
        <ele>135.19999694824</ele>
        <time>2012-02-20T13:59:02.000Z</time>
      </trkpt>
      <trkpt lat="48.89362" lon="1.29567">
        <ele>135.39999389648</ele>
        <time>2012-02-20T13:59:07.000Z</time>
      </trkpt>
      <trkpt lat="48.89353" lon="1.29559">
        <ele>135.19999694824</ele>
        <time>2012-02-20T13:59:11.000Z</time>
      </trkpt>
      <trkpt lat="48.89345" lon="1.29546">
        <ele>135.19999694824</ele>
        <time>2012-02-20T13:59:16.000Z</time>
      </trkpt>
      <trkpt lat="48.8934" lon="1.29528">
        <ele>135.19999694824</ele>
        <time>2012-02-20T13:59:21.000Z</time>
      </trkpt>
      <trkpt lat="48.89335" lon="1.29507">
        <ele>135</ele>
        <time>2012-02-20T13:59:26.000Z</time>
      </trkpt>
      <trkpt lat="48.89332" lon="1.29489">
        <ele>135</ele>
        <time>2012-02-20T13:59:30.000Z</time>
      </trkpt>
      <trkpt lat="48.89328" lon="1.29468">
        <ele>135.19999694824</ele>
        <time>2012-02-20T13:59:35.000Z</time>
      </trkpt>
      <trkpt lat="48.89324" lon="1.29446">
        <ele>135.19999694824</ele>
        <time>2012-02-20T13:59:40.000Z</time>
      </trkpt>
      <trkpt lat="48.89321" lon="1.2943">
        <ele>135.19999694824</ele>
        <time>2012-02-20T13:59:44.000Z</time>
      </trkpt>
      <trkpt lat="48.8932" lon="1.29426">
        <ele>135.19999694824</ele>
        <time>2012-02-20T13:59:45.000Z</time>
      </trkpt>
      <trkpt lat="48.89317" lon="1.29404">
        <ele>135.39999389648</ele>
        <time>2012-02-20T13:59:50.000Z</time>
      </trkpt>
      <trkpt lat="48.89312" lon="1.29383">
        <ele>135.60000610352</ele>
        <time>2012-02-20T13:59:55.000Z</time>
      </trkpt>
      <trkpt lat="48.8931" lon="1.29367">
        <ele>135.80000305176</ele>
        <time>2012-02-20T13:59:59.000Z</time>
      </trkpt>
      <trkpt lat="48.89308" lon="1.29349">
        <ele>135.80000305176</ele>
        <time>2012-02-20T14:00:03.000Z</time>
      </trkpt>
      <trkpt lat="48.89304" lon="1.29334">
        <ele>136</ele>
        <time>2012-02-20T14:00:07.000Z</time>
      </trkpt>
      <trkpt lat="48.89299" lon="1.29317">
        <ele>136.19999694824</ele>
        <time>2012-02-20T14:00:11.000Z</time>
      </trkpt>
      <trkpt lat="48.89295" lon="1.29293">
        <ele>136.60000610352</ele>
        <time>2012-02-20T14:00:17.000Z</time>
      </trkpt>
      <trkpt lat="48.89288" lon="1.29268">
        <ele>136.80000305176</ele>
        <time>2012-02-20T14:00:23.000Z</time>
      </trkpt>
      <trkpt lat="48.89285" lon="1.29268">
        <ele>136.60000610352</ele>
        <time>2012-02-20T14:00:24.000Z</time>
      </trkpt>
      <trkpt lat="48.89278" lon="1.29268">
        <ele>136.60000610352</ele>
        <time>2012-02-20T14:00:26.000Z</time>
      </trkpt>
      <trkpt lat="48.89267" lon="1.29273">
        <ele>136.19999694824</ele>
        <time>2012-02-20T14:00:30.000Z</time>
      </trkpt>
      <trkpt lat="48.89261" lon="1.29276">
        <ele>136.19999694824</ele>
        <time>2012-02-20T14:00:32.000Z</time>
      </trkpt>
      <trkpt lat="48.89254" lon="1.29283">
        <ele>136</ele>
        <time>2012-02-20T14:00:35.000Z</time>
      </trkpt>
      <trkpt lat="48.89242" lon="1.29294">
        <ele>136.39999389648</ele>
        <time>2012-02-20T14:00:40.000Z</time>
      </trkpt>
      <trkpt lat="48.8923" lon="1.29304">
        <ele>136.80000305176</ele>
        <time>2012-02-20T14:00:46.000Z</time>
      </trkpt>
      <trkpt lat="48.8922" lon="1.29317">
        <ele>137.19999694824</ele>
        <time>2012-02-20T14:00:51.000Z</time>
      </trkpt>
      <trkpt lat="48.89212" lon="1.29326">
        <ele>137.39999389648</ele>
        <time>2012-02-20T14:00:55.000Z</time>
      </trkpt>
      <trkpt lat="48.89204" lon="1.29334">
        <ele>137.60000610352</ele>
        <time>2012-02-20T14:00:59.000Z</time>
      </trkpt>
      <trkpt lat="48.89196" lon="1.29345">
        <ele>137.80000305176</ele>
        <time>2012-02-20T14:01:03.000Z</time>
      </trkpt>
      <trkpt lat="48.89184" lon="1.29361">
        <ele>138.19999694824</ele>
        <time>2012-02-20T14:01:09.000Z</time>
      </trkpt>
      <trkpt lat="48.89172" lon="1.29371">
        <ele>138.39999389648</ele>
        <time>2012-02-20T14:01:14.000Z</time>
      </trkpt>
      <trkpt lat="48.8917" lon="1.29375">
        <ele>138.39999389648</ele>
        <time>2012-02-20T14:01:15.000Z</time>
      </trkpt>
      <trkpt lat="48.89163" lon="1.29381">
        <ele>138.39999389648</ele>
        <time>2012-02-20T14:01:18.000Z</time>
      </trkpt>
      <trkpt lat="48.89151" lon="1.29391">
        <ele>138.39999389648</ele>
        <time>2012-02-20T14:01:23.000Z</time>
      </trkpt>
      <trkpt lat="48.8914" lon="1.29402">
        <ele>138.39999389648</ele>
        <time>2012-02-20T14:01:28.000Z</time>
      </trkpt>
      <trkpt lat="48.89125" lon="1.29414">
        <ele>138.60000610352</ele>
        <time>2012-02-20T14:01:34.000Z</time>
      </trkpt>
      <trkpt lat="48.89112" lon="1.29427">
        <ele>138.60000610352</ele>
        <time>2012-02-20T14:01:40.000Z</time>
      </trkpt>
      <trkpt lat="48.89099" lon="1.29441">
        <ele>138.80000305176</ele>
        <time>2012-02-20T14:01:46.000Z</time>
      </trkpt>
      <trkpt lat="48.89089" lon="1.29449">
        <ele>139</ele>
        <time>2012-02-20T14:01:51.000Z</time>
      </trkpt>
      <trkpt lat="48.89079" lon="1.29457">
        <ele>139</ele>
        <time>2012-02-20T14:01:55.000Z</time>
      </trkpt>
      <trkpt lat="48.8907" lon="1.29464">
        <ele>139.19999694824</ele>
        <time>2012-02-20T14:01:59.000Z</time>
      </trkpt>
      <trkpt lat="48.89054" lon="1.29474">
        <ele>139.39999389648</ele>
        <time>2012-02-20T14:02:05.000Z</time>
      </trkpt>
      <trkpt lat="48.89041" lon="1.29481">
        <ele>139.60000610352</ele>
        <time>2012-02-20T14:02:10.000Z</time>
      </trkpt>
      <trkpt lat="48.89027" lon="1.29485">
        <ele>139.60000610352</ele>
        <time>2012-02-20T14:02:15.000Z</time>
      </trkpt>
      <trkpt lat="48.89013" lon="1.29488">
        <ele>139.80000305176</ele>
        <time>2012-02-20T14:02:20.000Z</time>
      </trkpt>
      <trkpt lat="48.89002" lon="1.29494">
        <ele>140</ele>
        <time>2012-02-20T14:02:24.000Z</time>
      </trkpt>
      <trkpt lat="48.88991" lon="1.29497">
        <ele>139.80000305176</ele>
        <time>2012-02-20T14:02:28.000Z</time>
      </trkpt>
      <trkpt lat="48.88978" lon="1.29497">
        <ele>139.39999389648</ele>
        <time>2012-02-20T14:02:33.000Z</time>
      </trkpt>
      <trkpt lat="48.88962" lon="1.29496">
        <ele>139.19999694824</ele>
        <time>2012-02-20T14:02:39.000Z</time>
      </trkpt>
      <trkpt lat="48.88948" lon="1.29493">
        <ele>138.80000305176</ele>
        <time>2012-02-20T14:02:44.000Z</time>
      </trkpt>
      <trkpt lat="48.88932" lon="1.2949">
        <ele>138.39999389648</ele>
        <time>2012-02-20T14:02:50.000Z</time>
      </trkpt>
      <trkpt lat="48.88912" lon="1.29489">
        <ele>138.19999694824</ele>
        <time>2012-02-20T14:02:57.000Z</time>
      </trkpt>
      <trkpt lat="48.8891" lon="1.29488">
        <ele>138.19999694824</ele>
        <time>2012-02-20T14:02:58.000Z</time>
      </trkpt>
      <trkpt lat="48.88901" lon="1.29486">
        <ele>138.19999694824</ele>
        <time>2012-02-20T14:03:02.000Z</time>
      </trkpt>
      <trkpt lat="48.8889" lon="1.29483">
        <ele>138.19999694824</ele>
        <time>2012-02-20T14:03:06.000Z</time>
      </trkpt>
      <trkpt lat="48.88877" lon="1.29481">
        <ele>138.19999694824</ele>
        <time>2012-02-20T14:03:11.000Z</time>
      </trkpt>
      <trkpt lat="48.88866" lon="1.29472">
        <ele>138.19999694824</ele>
        <time>2012-02-20T14:03:16.000Z</time>
      </trkpt>
      <trkpt lat="48.88867" lon="1.29456">
        <ele>138.19999694824</ele>
        <time>2012-02-20T14:03:20.000Z</time>
      </trkpt>
      <trkpt lat="48.8887" lon="1.29432">
        <ele>138.39999389648</ele>
        <time>2012-02-20T14:03:26.000Z</time>
      </trkpt>
      <trkpt lat="48.88872" lon="1.29407">
        <ele>138.60000610352</ele>
        <time>2012-02-20T14:03:32.000Z</time>
      </trkpt>
      <trkpt lat="48.88874" lon="1.2939">
        <ele>138.80000305176</ele>
        <time>2012-02-20T14:03:36.000Z</time>
      </trkpt>
      <trkpt lat="48.88875" lon="1.2937">
        <ele>139</ele>
        <time>2012-02-20T14:03:41.000Z</time>
      </trkpt>
      <trkpt lat="48.88877" lon="1.29343">
        <ele>139.39999389648</ele>
        <time>2012-02-20T14:03:47.000Z</time>
      </trkpt>
      <trkpt lat="48.88879" lon="1.29318">
        <ele>139.80000305176</ele>
        <time>2012-02-20T14:03:53.000Z</time>
      </trkpt>
      <trkpt lat="48.8888" lon="1.29293">
        <ele>140</ele>
        <time>2012-02-20T14:03:59.000Z</time>
      </trkpt>
      <trkpt lat="48.88882" lon="1.29272">
        <ele>140.19999694824</ele>
        <time>2012-02-20T14:04:04.000Z</time>
      </trkpt>
      <trkpt lat="48.88883" lon="1.29254">
        <ele>140.39999389648</ele>
        <time>2012-02-20T14:04:08.000Z</time>
      </trkpt>
      <trkpt lat="48.88885" lon="1.29232">
        <ele>140.60000610352</ele>
        <time>2012-02-20T14:04:13.000Z</time>
      </trkpt>
      <trkpt lat="48.88885" lon="1.29211">
        <ele>140.60000610352</ele>
        <time>2012-02-20T14:04:18.000Z</time>
      </trkpt>
      <trkpt lat="48.88885" lon="1.29192">
        <ele>140.80000305176</ele>
        <time>2012-02-20T14:04:22.000Z</time>
      </trkpt>
      <trkpt lat="48.88884" lon="1.29167">
        <ele>141</ele>
        <time>2012-02-20T14:04:28.000Z</time>
      </trkpt>
      <trkpt lat="48.8888" lon="1.29142">
        <ele>141.19999694824</ele>
        <time>2012-02-20T14:04:34.000Z</time>
      </trkpt>
      <trkpt lat="48.88876" lon="1.29117">
        <ele>141.19999694824</ele>
        <time>2012-02-20T14:04:40.000Z</time>
      </trkpt>
      <trkpt lat="48.88871" lon="1.29097">
        <ele>141.39999389648</ele>
        <time>2012-02-20T14:04:45.000Z</time>
      </trkpt>
      <trkpt lat="48.88866" lon="1.29073">
        <ele>141.60000610352</ele>
        <time>2012-02-20T14:04:51.000Z</time>
      </trkpt>
      <trkpt lat="48.88859" lon="1.2905">
        <ele>141.39999389648</ele>
        <time>2012-02-20T14:04:57.000Z</time>
      </trkpt>
      <trkpt lat="48.88852" lon="1.29031">
        <ele>141.19999694824</ele>
        <time>2012-02-20T14:05:02.000Z</time>
      </trkpt>
      <trkpt lat="48.88845" lon="1.29009">
        <ele>141</ele>
        <time>2012-02-20T14:05:07.000Z</time>
      </trkpt>
      <trkpt lat="48.88836" lon="1.28986">
        <ele>141</ele>
        <time>2012-02-20T14:05:13.000Z</time>
      </trkpt>
      <trkpt lat="48.88831" lon="1.28972">
        <ele>141</ele>
        <time>2012-02-20T14:05:17.000Z</time>
      </trkpt>
      <trkpt lat="48.88824" lon="1.28952">
        <ele>141</ele>
        <time>2012-02-20T14:05:22.000Z</time>
      </trkpt>
      <trkpt lat="48.88817" lon="1.28933">
        <ele>141.19999694824</ele>
        <time>2012-02-20T14:05:27.000Z</time>
      </trkpt>
      <trkpt lat="48.8881" lon="1.28908">
        <ele>141.19999694824</ele>
        <time>2012-02-20T14:05:33.000Z</time>
      </trkpt>
      <trkpt lat="48.88803" lon="1.28889">
        <ele>141.39999389648</ele>
        <time>2012-02-20T14:05:38.000Z</time>
      </trkpt>
      <trkpt lat="48.88795" lon="1.28865">
        <ele>141.39999389648</ele>
        <time>2012-02-20T14:05:44.000Z</time>
      </trkpt>
      <trkpt lat="48.8879" lon="1.28845">
        <ele>141.60000610352</ele>
        <time>2012-02-20T14:05:49.000Z</time>
      </trkpt>
      <trkpt lat="48.88784" lon="1.28821">
        <ele>141.60000610352</ele>
        <time>2012-02-20T14:05:55.000Z</time>
      </trkpt>
      <trkpt lat="48.88779" lon="1.28799">
        <ele>141.39999389648</ele>
        <time>2012-02-20T14:06:00.000Z</time>
      </trkpt>
      <trkpt lat="48.88774" lon="1.28775">
        <ele>141.19999694824</ele>
        <time>2012-02-20T14:06:06.000Z</time>
      </trkpt>
      <trkpt lat="48.88768" lon="1.28751">
        <ele>141</ele>
        <time>2012-02-20T14:06:12.000Z</time>
      </trkpt>
      <trkpt lat="48.88764" lon="1.28731">
        <ele>141</ele>
        <time>2012-02-20T14:06:17.000Z</time>
      </trkpt>
      <trkpt lat="48.88761" lon="1.2871">
        <ele>141</ele>
        <time>2012-02-20T14:06:22.000Z</time>
      </trkpt>
      <trkpt lat="48.88759" lon="1.28688">
        <ele>141</ele>
        <time>2012-02-20T14:06:27.000Z</time>
      </trkpt>
      <trkpt lat="48.88757" lon="1.28663">
        <ele>141</ele>
        <time>2012-02-20T14:06:33.000Z</time>
      </trkpt>
      <trkpt lat="48.88755" lon="1.28637">
        <ele>141</ele>
        <time>2012-02-20T14:06:39.000Z</time>
      </trkpt>
      <trkpt lat="48.88756" lon="1.2862">
        <ele>141</ele>
        <time>2012-02-20T14:06:43.000Z</time>
      </trkpt>
      <trkpt lat="48.88756" lon="1.28598">
        <ele>141</ele>
        <time>2012-02-20T14:06:48.000Z</time>
      </trkpt>
      <trkpt lat="48.88758" lon="1.28572">
        <ele>141</ele>
        <time>2012-02-20T14:06:54.000Z</time>
      </trkpt>
      <trkpt lat="48.88758" lon="1.28551">
        <ele>140.80000305176</ele>
        <time>2012-02-20T14:06:59.000Z</time>
      </trkpt>
      <trkpt lat="48.8876" lon="1.28532">
        <ele>140.60000610352</ele>
        <time>2012-02-20T14:07:04.000Z</time>
      </trkpt>
      <trkpt lat="48.88763" lon="1.28513">
        <ele>140.39999389648</ele>
        <time>2012-02-20T14:07:09.000Z</time>
      </trkpt>
      <trkpt lat="48.88764" lon="1.28493">
        <ele>140.19999694824</ele>
        <time>2012-02-20T14:07:14.000Z</time>
      </trkpt>
      <trkpt lat="48.88765" lon="1.28471">
        <ele>140.39999389648</ele>
        <time>2012-02-20T14:07:19.000Z</time>
      </trkpt>
      <trkpt lat="48.88766" lon="1.28442">
        <ele>140.80000305176</ele>
        <time>2012-02-20T14:07:26.000Z</time>
      </trkpt>
      <trkpt lat="48.88767" lon="1.28417">
        <ele>141</ele>
        <time>2012-02-20T14:07:32.000Z</time>
      </trkpt>
      <trkpt lat="48.88769" lon="1.28391">
        <ele>141</ele>
        <time>2012-02-20T14:07:38.000Z</time>
      </trkpt>
      <trkpt lat="48.8877" lon="1.2837">
        <ele>140.80000305176</ele>
        <time>2012-02-20T14:07:43.000Z</time>
      </trkpt>
      <trkpt lat="48.88771" lon="1.2835">
        <ele>140.80000305176</ele>
        <time>2012-02-20T14:07:48.000Z</time>
      </trkpt>
      <trkpt lat="48.88771" lon="1.28329">
        <ele>140.80000305176</ele>
        <time>2012-02-20T14:07:53.000Z</time>
      </trkpt>
      <trkpt lat="48.88769" lon="1.28307">
        <ele>140.60000610352</ele>
        <time>2012-02-20T14:07:58.000Z</time>
      </trkpt>
      <trkpt lat="48.88767" lon="1.28286">
        <ele>140.39999389648</ele>
        <time>2012-02-20T14:08:03.000Z</time>
      </trkpt>
      <trkpt lat="48.88763" lon="1.2826">
        <ele>140.19999694824</ele>
        <time>2012-02-20T14:08:09.000Z</time>
      </trkpt>
      <trkpt lat="48.88759" lon="1.2824">
        <ele>140.19999694824</ele>
        <time>2012-02-20T14:08:14.000Z</time>
      </trkpt>
      <trkpt lat="48.88754" lon="1.28223">
        <ele>140.39999389648</ele>
        <time>2012-02-20T14:08:18.000Z</time>
      </trkpt>
      <trkpt lat="48.88748" lon="1.28198">
        <ele>140.60000610352</ele>
        <time>2012-02-20T14:08:24.000Z</time>
      </trkpt>
      <trkpt lat="48.88742" lon="1.28169">
        <ele>141</ele>
        <time>2012-02-20T14:08:31.000Z</time>
      </trkpt>
      <trkpt lat="48.88737" lon="1.28144">
        <ele>141.39999389648</ele>
        <time>2012-02-20T14:08:37.000Z</time>
      </trkpt>
      <trkpt lat="48.88735" lon="1.28127">
        <ele>141.39999389648</ele>
        <time>2012-02-20T14:08:41.000Z</time>
      </trkpt>
      <trkpt lat="48.8873" lon="1.28107">
        <ele>141.60000610352</ele>
        <time>2012-02-20T14:08:46.000Z</time>
      </trkpt>
      <trkpt lat="48.88726" lon="1.28078">
        <ele>141.80000305176</ele>
        <time>2012-02-20T14:08:53.000Z</time>
      </trkpt>
      <trkpt lat="48.88724" lon="1.28056">
        <ele>141.80000305176</ele>
        <time>2012-02-20T14:08:58.000Z</time>
      </trkpt>
      <trkpt lat="48.88721" lon="1.28031">
        <ele>141.80000305176</ele>
        <time>2012-02-20T14:09:04.000Z</time>
      </trkpt>
      <trkpt lat="48.8872" lon="1.28005">
        <ele>142</ele>
        <time>2012-02-20T14:09:10.000Z</time>
      </trkpt>
      <trkpt lat="48.88717" lon="1.27976">
        <ele>141.80000305176</ele>
        <time>2012-02-20T14:09:17.000Z</time>
      </trkpt>
      <trkpt lat="48.88715" lon="1.27954">
        <ele>141.60000610352</ele>
        <time>2012-02-20T14:09:22.000Z</time>
      </trkpt>
      <trkpt lat="48.88712" lon="1.27929">
        <ele>141.60000610352</ele>
        <time>2012-02-20T14:09:28.000Z</time>
      </trkpt>
      <trkpt lat="48.88708" lon="1.279">
        <ele>141.60000610352</ele>
        <time>2012-02-20T14:09:35.000Z</time>
      </trkpt>
      <trkpt lat="48.88705" lon="1.27875">
        <ele>141.60000610352</ele>
        <time>2012-02-20T14:09:41.000Z</time>
      </trkpt>
      <trkpt lat="48.88699" lon="1.27849">
        <ele>141.39999389648</ele>
        <time>2012-02-20T14:09:47.000Z</time>
      </trkpt>
      <trkpt lat="48.88695" lon="1.27829">
        <ele>141.39999389648</ele>
        <time>2012-02-20T14:09:52.000Z</time>
      </trkpt>
      <trkpt lat="48.88692" lon="1.27814">
        <ele>141.39999389648</ele>
        <time>2012-02-20T14:09:56.000Z</time>
      </trkpt>
      <trkpt lat="48.8869" lon="1.27793">
        <ele>141.60000610352</ele>
        <time>2012-02-20T14:10:01.000Z</time>
      </trkpt>
      <trkpt lat="48.88697" lon="1.2778">
        <ele>141.80000305176</ele>
        <time>2012-02-20T14:10:06.000Z</time>
      </trkpt>
      <trkpt lat="48.88704" lon="1.27777">
        <ele>141.80000305176</ele>
        <time>2012-02-20T14:10:09.000Z</time>
      </trkpt>
      <trkpt lat="48.88709" lon="1.27777">
        <ele>141.80000305176</ele>
        <time>2012-02-20T14:10:11.000Z</time>
      </trkpt>
      <trkpt lat="48.8872" lon="1.27775">
        <ele>141.80000305176</ele>
        <time>2012-02-20T14:10:16.000Z</time>
      </trkpt>
      <trkpt lat="48.88731" lon="1.27775">
        <ele>142</ele>
        <time>2012-02-20T14:10:21.000Z</time>
      </trkpt>
      <trkpt lat="48.88744" lon="1.27773">
        <ele>142</ele>
        <time>2012-02-20T14:10:26.000Z</time>
      </trkpt>
      <trkpt lat="48.88759" lon="1.27769">
        <ele>142</ele>
        <time>2012-02-20T14:10:31.000Z</time>
      </trkpt>
      <trkpt lat="48.88768" lon="1.2777">
        <ele>142</ele>
        <time>2012-02-20T14:10:35.000Z</time>
      </trkpt>
      <trkpt lat="48.88784" lon="1.27767">
        <ele>142</ele>
        <time>2012-02-20T14:10:41.000Z</time>
      </trkpt>
      <trkpt lat="48.88805" lon="1.27763">
        <ele>142</ele>
        <time>2012-02-20T14:10:48.000Z</time>
      </trkpt>
      <trkpt lat="48.88821" lon="1.2776">
        <ele>142</ele>
        <time>2012-02-20T14:10:54.000Z</time>
      </trkpt>
      <trkpt lat="48.88831" lon="1.27759">
        <ele>142</ele>
        <time>2012-02-20T14:10:58.000Z</time>
      </trkpt>
      <trkpt lat="48.88836" lon="1.27758">
        <ele>142</ele>
        <time>2012-02-20T14:11:00.000Z</time>
      </trkpt>
      <trkpt lat="48.88851" lon="1.27756">
        <ele>141.80000305176</ele>
        <time>2012-02-20T14:11:06.000Z</time>
      </trkpt>
      <trkpt lat="48.88866" lon="1.27753">
        <ele>141.60000610352</ele>
        <time>2012-02-20T14:11:12.000Z</time>
      </trkpt>
      <trkpt lat="48.88884" lon="1.27752">
        <ele>141.39999389648</ele>
        <time>2012-02-20T14:11:18.000Z</time>
      </trkpt>
      <trkpt lat="48.88901" lon="1.27749">
        <ele>141.19999694824</ele>
        <time>2012-02-20T14:11:24.000Z</time>
      </trkpt>
      <trkpt lat="48.88914" lon="1.27747">
        <ele>141</ele>
        <time>2012-02-20T14:11:29.000Z</time>
      </trkpt>
      <trkpt lat="48.88928" lon="1.27744">
        <ele>141</ele>
        <time>2012-02-20T14:11:34.000Z</time>
      </trkpt>
      <trkpt lat="48.88945" lon="1.27743">
        <ele>141</ele>
        <time>2012-02-20T14:11:40.000Z</time>
      </trkpt>
      <trkpt lat="48.88959" lon="1.27742">
        <ele>141</ele>
        <time>2012-02-20T14:11:45.000Z</time>
      </trkpt>
      <trkpt lat="48.88964" lon="1.27741">
        <ele>141</ele>
        <time>2012-02-20T14:11:47.000Z</time>
      </trkpt>
      <trkpt lat="48.88969" lon="1.2774">
        <ele>141</ele>
        <time>2012-02-20T14:11:49.000Z</time>
      </trkpt>
      <trkpt lat="48.88982" lon="1.27738">
        <ele>140.80000305176</ele>
        <time>2012-02-20T14:11:54.000Z</time>
      </trkpt>
      <trkpt lat="48.88998" lon="1.27736">
        <ele>140.80000305176</ele>
        <time>2012-02-20T14:12:01.000Z</time>
      </trkpt>
      <trkpt lat="48.89012" lon="1.27732">
        <ele>140.80000305176</ele>
        <time>2012-02-20T14:12:06.000Z</time>
      </trkpt>
      <trkpt lat="48.89027" lon="1.2773">
        <ele>140.80000305176</ele>
        <time>2012-02-20T14:12:11.000Z</time>
      </trkpt>
      <trkpt lat="48.89044" lon="1.27727">
        <ele>140.80000305176</ele>
        <time>2012-02-20T14:12:18.000Z</time>
      </trkpt>
      <trkpt lat="48.89061" lon="1.27726">
        <ele>141</ele>
        <time>2012-02-20T14:12:24.000Z</time>
      </trkpt>
      <trkpt lat="48.8908" lon="1.27722">
        <ele>141</ele>
        <time>2012-02-20T14:12:30.000Z</time>
      </trkpt>
      <trkpt lat="48.89098" lon="1.27721">
        <ele>141.19999694824</ele>
        <time>2012-02-20T14:12:36.000Z</time>
      </trkpt>
      <trkpt lat="48.89115" lon="1.2772">
        <ele>141.39999389648</ele>
        <time>2012-02-20T14:12:42.000Z</time>
      </trkpt>
      <trkpt lat="48.89127" lon="1.27718">
        <ele>141.60000610352</ele>
        <time>2012-02-20T14:12:46.000Z</time>
      </trkpt>
      <trkpt lat="48.89137" lon="1.27719">
        <ele>141.80000305176</ele>
        <time>2012-02-20T14:12:50.000Z</time>
      </trkpt>
      <trkpt lat="48.8914" lon="1.27719">
        <ele>141.80000305176</ele>
        <time>2012-02-20T14:12:51.000Z</time>
      </trkpt>
      <trkpt lat="48.89154" lon="1.27719">
        <ele>142</ele>
        <time>2012-02-20T14:12:56.000Z</time>
      </trkpt>
      <trkpt lat="48.89171" lon="1.27717">
        <ele>142.19999694824</ele>
        <time>2012-02-20T14:13:02.000Z</time>
      </trkpt>
      <trkpt lat="48.89189" lon="1.27715">
        <ele>141.80000305176</ele>
        <time>2012-02-20T14:13:08.000Z</time>
      </trkpt>
      <trkpt lat="48.89202" lon="1.27712">
        <ele>141.60000610352</ele>
        <time>2012-02-20T14:13:13.000Z</time>
      </trkpt>
      <trkpt lat="48.89218" lon="1.27707">
        <ele>141.39999389648</ele>
        <time>2012-02-20T14:13:18.000Z</time>
      </trkpt>
      <trkpt lat="48.89234" lon="1.27706">
        <ele>141.19999694824</ele>
        <time>2012-02-20T14:13:24.000Z</time>
      </trkpt>
      <trkpt lat="48.89246" lon="1.27705">
        <ele>141</ele>
        <time>2012-02-20T14:13:29.000Z</time>
      </trkpt>
      <trkpt lat="48.89261" lon="1.27701">
        <ele>141</ele>
        <time>2012-02-20T14:13:34.000Z</time>
      </trkpt>
      <trkpt lat="48.89272" lon="1.277">
        <ele>141.19999694824</ele>
        <time>2012-02-20T14:13:39.000Z</time>
      </trkpt>
      <trkpt lat="48.89287" lon="1.27697">
        <ele>141.19999694824</ele>
        <time>2012-02-20T14:13:44.000Z</time>
      </trkpt>
      <trkpt lat="48.89301" lon="1.27694">
        <ele>141.39999389648</ele>
        <time>2012-02-20T14:13:49.000Z</time>
      </trkpt>
      <trkpt lat="48.89314" lon="1.27692">
        <ele>141.60000610352</ele>
        <time>2012-02-20T14:13:53.000Z</time>
      </trkpt>
      <trkpt lat="48.89332" lon="1.27689">
        <ele>141.80000305176</ele>
        <time>2012-02-20T14:13:59.000Z</time>
      </trkpt>
      <trkpt lat="48.89345" lon="1.27686">
        <ele>142</ele>
        <time>2012-02-20T14:14:04.000Z</time>
      </trkpt>
      <trkpt lat="48.89362" lon="1.27683">
        <ele>142.19999694824</ele>
        <time>2012-02-20T14:14:11.000Z</time>
      </trkpt>
      <trkpt lat="48.89375" lon="1.27681">
        <ele>142.39999389648</ele>
        <time>2012-02-20T14:14:16.000Z</time>
      </trkpt>
      <trkpt lat="48.89394" lon="1.27678">
        <ele>142.60000610352</ele>
        <time>2012-02-20T14:14:22.000Z</time>
      </trkpt>
      <trkpt lat="48.89397" lon="1.27678">
        <ele>142.60000610352</ele>
        <time>2012-02-20T14:14:23.000Z</time>
      </trkpt>
      <trkpt lat="48.89412" lon="1.27678">
        <ele>142.80000305176</ele>
        <time>2012-02-20T14:14:28.000Z</time>
      </trkpt>
      <trkpt lat="48.89429" lon="1.27676">
        <ele>142.80000305176</ele>
        <time>2012-02-20T14:14:33.000Z</time>
      </trkpt>
      <trkpt lat="48.89445" lon="1.27675">
        <ele>142.80000305176</ele>
        <time>2012-02-20T14:14:39.000Z</time>
      </trkpt>
      <trkpt lat="48.89458" lon="1.27672">
        <ele>143</ele>
        <time>2012-02-20T14:14:44.000Z</time>
      </trkpt>
      <trkpt lat="48.89474" lon="1.27671">
        <ele>143</ele>
        <time>2012-02-20T14:14:50.000Z</time>
      </trkpt>
      <trkpt lat="48.8949" lon="1.27667">
        <ele>143</ele>
        <time>2012-02-20T14:14:56.000Z</time>
      </trkpt>
      <trkpt lat="48.89504" lon="1.27664">
        <ele>143</ele>
        <time>2012-02-20T14:15:01.000Z</time>
      </trkpt>
      <trkpt lat="48.89515" lon="1.27666">
        <ele>142.80000305176</ele>
        <time>2012-02-20T14:15:05.000Z</time>
      </trkpt>
      <trkpt lat="48.89518" lon="1.27668">
        <ele>142.80000305176</ele>
        <time>2012-02-20T14:15:07.000Z</time>
      </trkpt>
      <trkpt lat="48.89517" lon="1.27672">
        <ele>142.80000305176</ele>
        <time>2012-02-20T14:15:09.000Z</time>
      </trkpt>
      <trkpt lat="48.8951" lon="1.27678">
        <ele>142.80000305176</ele>
        <time>2012-02-20T14:15:13.000Z</time>
      </trkpt>
      <trkpt lat="48.89506" lon="1.27679">
        <ele>142.80000305176</ele>
        <time>2012-02-20T14:15:15.000Z</time>
      </trkpt>
      <trkpt lat="48.89497" lon="1.27681">
        <ele>142.80000305176</ele>
        <time>2012-02-20T14:15:19.000Z</time>
      </trkpt>
      <trkpt lat="48.89482" lon="1.27684">
        <ele>142.80000305176</ele>
        <time>2012-02-20T14:15:25.000Z</time>
      </trkpt>
      <trkpt lat="48.89468" lon="1.27689">
        <ele>142.80000305176</ele>
        <time>2012-02-20T14:15:31.000Z</time>
      </trkpt>
      <trkpt lat="48.89451" lon="1.2769">
        <ele>142.80000305176</ele>
        <time>2012-02-20T14:15:37.000Z</time>
      </trkpt>
      <trkpt lat="48.89438" lon="1.27694">
        <ele>142.60000610352</ele>
        <time>2012-02-20T14:15:42.000Z</time>
      </trkpt>
      <trkpt lat="48.89423" lon="1.27695">
        <ele>142.60000610352</ele>
        <time>2012-02-20T14:15:47.000Z</time>
      </trkpt>
      <trkpt lat="48.89408" lon="1.27697">
        <ele>142.60000610352</ele>
        <time>2012-02-20T14:15:52.000Z</time>
      </trkpt>
      <trkpt lat="48.89397" lon="1.27697">
        <ele>142.39999389648</ele>
        <time>2012-02-20T14:15:56.000Z</time>
      </trkpt>
      <trkpt lat="48.8938" lon="1.27698">
        <ele>142.19999694824</ele>
        <time>2012-02-20T14:16:02.000Z</time>
      </trkpt>
      <trkpt lat="48.89366" lon="1.27701">
        <ele>142</ele>
        <time>2012-02-20T14:16:07.000Z</time>
      </trkpt>
      <trkpt lat="48.89352" lon="1.27702">
        <ele>141.80000305176</ele>
        <time>2012-02-20T14:16:12.000Z</time>
      </trkpt>
      <trkpt lat="48.89342" lon="1.27703">
        <ele>141.60000610352</ele>
        <time>2012-02-20T14:16:16.000Z</time>
      </trkpt>
      <trkpt lat="48.89326" lon="1.27706">
        <ele>141.39999389648</ele>
        <time>2012-02-20T14:16:22.000Z</time>
      </trkpt>
      <trkpt lat="48.89308" lon="1.2771">
        <ele>141.39999389648</ele>
        <time>2012-02-20T14:16:28.000Z</time>
      </trkpt>
      <trkpt lat="48.8929" lon="1.2771">
        <ele>141.19999694824</ele>
        <time>2012-02-20T14:16:34.000Z</time>
      </trkpt>
      <trkpt lat="48.89274" lon="1.27716">
        <ele>141.19999694824</ele>
        <time>2012-02-20T14:16:40.000Z</time>
      </trkpt>
      <trkpt lat="48.89259" lon="1.27717">
        <ele>141</ele>
        <time>2012-02-20T14:16:45.000Z</time>
      </trkpt>
      <trkpt lat="48.89242" lon="1.27721">
        <ele>141.19999694824</ele>
        <time>2012-02-20T14:16:50.000Z</time>
      </trkpt>
      <trkpt lat="48.89224" lon="1.27724">
        <ele>141.39999389648</ele>
        <time>2012-02-20T14:16:56.000Z</time>
      </trkpt>
      <trkpt lat="48.89206" lon="1.27735">
        <ele>141.80000305176</ele>
        <time>2012-02-20T14:17:02.000Z</time>
      </trkpt>
      <trkpt lat="48.89195" lon="1.27739">
        <ele>142.19999694824</ele>
        <time>2012-02-20T14:17:06.000Z</time>
      </trkpt>
      <trkpt lat="48.8918" lon="1.2775">
        <ele>142.60000610352</ele>
        <time>2012-02-20T14:17:12.000Z</time>
      </trkpt>
      <trkpt lat="48.89171" lon="1.2776">
        <ele>142.60000610352</ele>
        <time>2012-02-20T14:17:16.000Z</time>
      </trkpt>
      <trkpt lat="48.89162" lon="1.27775">
        <ele>142.39999389648</ele>
        <time>2012-02-20T14:17:21.000Z</time>
      </trkpt>
      <trkpt lat="48.89156" lon="1.27791">
        <ele>141.80000305176</ele>
        <time>2012-02-20T14:17:26.000Z</time>
      </trkpt>
      <trkpt lat="48.89149" lon="1.27808">
        <ele>141.39999389648</ele>
        <time>2012-02-20T14:17:31.000Z</time>
      </trkpt>
      <trkpt lat="48.89145" lon="1.27819">
        <ele>141.19999694824</ele>
        <time>2012-02-20T14:17:35.000Z</time>
      </trkpt>
      <trkpt lat="48.89141" lon="1.2784">
        <ele>141</ele>
        <time>2012-02-20T14:17:40.000Z</time>
      </trkpt>
      <trkpt lat="48.89141" lon="1.27863">
        <ele>140.60000610352</ele>
        <time>2012-02-20T14:17:46.000Z</time>
      </trkpt>
      <trkpt lat="48.89141" lon="1.27886">
        <ele>140.39999389648</ele>
        <time>2012-02-20T14:17:51.000Z</time>
      </trkpt>
      <trkpt lat="48.89142" lon="1.27903">
        <ele>140.19999694824</ele>
        <time>2012-02-20T14:17:55.000Z</time>
      </trkpt>
      <trkpt lat="48.89142" lon="1.27925">
        <ele>139.80000305176</ele>
        <time>2012-02-20T14:18:00.000Z</time>
      </trkpt>
      <trkpt lat="48.89145" lon="1.27945">
        <ele>139.60000610352</ele>
        <time>2012-02-20T14:18:05.000Z</time>
      </trkpt>
      <trkpt lat="48.89148" lon="1.2797">
        <ele>139.19999694824</ele>
        <time>2012-02-20T14:18:11.000Z</time>
      </trkpt>
      <trkpt lat="48.89149" lon="1.27992">
        <ele>139</ele>
        <time>2012-02-20T14:18:16.000Z</time>
      </trkpt>
      <trkpt lat="48.8915" lon="1.28001">
        <ele>138.80000305176</ele>
        <time>2012-02-20T14:18:18.000Z</time>
      </trkpt>
      <trkpt lat="48.8915" lon="1.2801">
        <ele>139</ele>
        <time>2012-02-20T14:18:20.000Z</time>
      </trkpt>
      <trkpt lat="48.89152" lon="1.28035">
        <ele>139.19999694824</ele>
        <time>2012-02-20T14:18:26.000Z</time>
      </trkpt>
      <trkpt lat="48.89154" lon="1.28056">
        <ele>139.60000610352</ele>
        <time>2012-02-20T14:18:31.000Z</time>
      </trkpt>
      <trkpt lat="48.89157" lon="1.28071">
        <ele>139.80000305176</ele>
        <time>2012-02-20T14:18:35.000Z</time>
      </trkpt>
      <trkpt lat="48.89163" lon="1.28095">
        <ele>139.80000305176</ele>
        <time>2012-02-20T14:18:41.000Z</time>
      </trkpt>
      <trkpt lat="48.89168" lon="1.2812">
        <ele>139.60000610352</ele>
        <time>2012-02-20T14:18:47.000Z</time>
      </trkpt>
      <trkpt lat="48.89173" lon="1.28142">
        <ele>139.39999389648</ele>
        <time>2012-02-20T14:18:52.000Z</time>
      </trkpt>
      <trkpt lat="48.89175" lon="1.28164">
        <ele>139.19999694824</ele>
        <time>2012-02-20T14:18:57.000Z</time>
      </trkpt>
      <trkpt lat="48.89179" lon="1.28185">
        <ele>139.19999694824</ele>
        <time>2012-02-20T14:19:02.000Z</time>
      </trkpt>
      <trkpt lat="48.8919" lon="1.28197">
        <ele>139.39999389648</ele>
        <time>2012-02-20T14:19:07.000Z</time>
      </trkpt>
      <trkpt lat="48.892" lon="1.28188">
        <ele>139.60000610352</ele>
        <time>2012-02-20T14:19:11.000Z</time>
      </trkpt>
      <trkpt lat="48.8921" lon="1.28174">
        <ele>139.60000610352</ele>
        <time>2012-02-20T14:19:16.000Z</time>
      </trkpt>
      <trkpt lat="48.89222" lon="1.2816">
        <ele>139.80000305176</ele>
        <time>2012-02-20T14:19:22.000Z</time>
      </trkpt>
      <trkpt lat="48.89232" lon="1.28151">
        <ele>140</ele>
        <time>2012-02-20T14:19:27.000Z</time>
      </trkpt>
      <trkpt lat="48.89246" lon="1.28142">
        <ele>140.19999694824</ele>
        <time>2012-02-20T14:19:32.000Z</time>
      </trkpt>
      <trkpt lat="48.89257" lon="1.28134">
        <ele>140.39999389648</ele>
        <time>2012-02-20T14:19:37.000Z</time>
      </trkpt>
      <trkpt lat="48.89276" lon="1.28125">
        <ele>140.60000610352</ele>
        <time>2012-02-20T14:19:44.000Z</time>
      </trkpt>
      <trkpt lat="48.89293" lon="1.28118">
        <ele>140.80000305176</ele>
        <time>2012-02-20T14:19:50.000Z</time>
      </trkpt>
      <trkpt lat="48.89311" lon="1.28112">
        <ele>141</ele>
        <time>2012-02-20T14:19:56.000Z</time>
      </trkpt>
      <trkpt lat="48.89325" lon="1.28108">
        <ele>141</ele>
        <time>2012-02-20T14:20:01.000Z</time>
      </trkpt>
      <trkpt lat="48.8934" lon="1.28104">
        <ele>141</ele>
        <time>2012-02-20T14:20:06.000Z</time>
      </trkpt>
      <trkpt lat="48.89356" lon="1.28101">
        <ele>141</ele>
        <time>2012-02-20T14:20:12.000Z</time>
      </trkpt>
      <trkpt lat="48.89366" lon="1.28099">
        <ele>141</ele>
        <time>2012-02-20T14:20:16.000Z</time>
      </trkpt>
      <trkpt lat="48.89384" lon="1.28094">
        <ele>141</ele>
        <time>2012-02-20T14:20:22.000Z</time>
      </trkpt>
      <trkpt lat="48.89403" lon="1.28089">
        <ele>141</ele>
        <time>2012-02-20T14:20:29.000Z</time>
      </trkpt>
      <trkpt lat="48.89417" lon="1.28085">
        <ele>141</ele>
        <time>2012-02-20T14:20:34.000Z</time>
      </trkpt>
      <trkpt lat="48.89437" lon="1.2808">
        <ele>141</ele>
        <time>2012-02-20T14:20:41.000Z</time>
      </trkpt>
      <trkpt lat="48.89454" lon="1.28083">
        <ele>141</ele>
        <time>2012-02-20T14:20:47.000Z</time>
      </trkpt>
      <trkpt lat="48.89455" lon="1.28086">
        <ele>141</ele>
        <time>2012-02-20T14:20:48.000Z</time>
      </trkpt>
      <trkpt lat="48.89457" lon="1.28099">
        <ele>141</ele>
        <time>2012-02-20T14:20:51.000Z</time>
      </trkpt>
      <trkpt lat="48.89454" lon="1.28115">
        <ele>141</ele>
        <time>2012-02-20T14:20:55.000Z</time>
      </trkpt>
      <trkpt lat="48.8945" lon="1.28139">
        <ele>141</ele>
        <time>2012-02-20T14:21:01.000Z</time>
      </trkpt>
      <trkpt lat="48.89446" lon="1.28159">
        <ele>141</ele>
        <time>2012-02-20T14:21:06.000Z</time>
      </trkpt>
      <trkpt lat="48.89443" lon="1.28181">
        <ele>141</ele>
        <time>2012-02-20T14:21:11.000Z</time>
      </trkpt>
      <trkpt lat="48.89438" lon="1.282">
        <ele>141</ele>
        <time>2012-02-20T14:21:16.000Z</time>
      </trkpt>
      <trkpt lat="48.89436" lon="1.28215">
        <ele>141</ele>
        <time>2012-02-20T14:21:20.000Z</time>
      </trkpt>
      <trkpt lat="48.89435" lon="1.28235">
        <ele>141</ele>
        <time>2012-02-20T14:21:25.000Z</time>
      </trkpt>
      <trkpt lat="48.89432" lon="1.28256">
        <ele>141</ele>
        <time>2012-02-20T14:21:30.000Z</time>
      </trkpt>
      <trkpt lat="48.89429" lon="1.28277">
        <ele>141</ele>
        <time>2012-02-20T14:21:35.000Z</time>
      </trkpt>
      <trkpt lat="48.89427" lon="1.28296">
        <ele>141</ele>
        <time>2012-02-20T14:21:40.000Z</time>
      </trkpt>
      <trkpt lat="48.89423" lon="1.2832">
        <ele>141</ele>
        <time>2012-02-20T14:21:46.000Z</time>
      </trkpt>
      <trkpt lat="48.8942" lon="1.28342">
        <ele>141</ele>
        <time>2012-02-20T14:21:51.000Z</time>
      </trkpt>
      <trkpt lat="48.89417" lon="1.28362">
        <ele>141</ele>
        <time>2012-02-20T14:21:56.000Z</time>
      </trkpt>
      <trkpt lat="48.89415" lon="1.28383">
        <ele>141</ele>
        <time>2012-02-20T14:22:01.000Z</time>
      </trkpt>
      <trkpt lat="48.89413" lon="1.28399">
        <ele>141</ele>
        <time>2012-02-20T14:22:05.000Z</time>
      </trkpt>
      <trkpt lat="48.89411" lon="1.2842">
        <ele>141</ele>
        <time>2012-02-20T14:22:10.000Z</time>
      </trkpt>
      <trkpt lat="48.89408" lon="1.2844">
        <ele>141.19999694824</ele>
        <time>2012-02-20T14:22:15.000Z</time>
      </trkpt>
      <trkpt lat="48.89407" lon="1.28457">
        <ele>141.19999694824</ele>
        <time>2012-02-20T14:22:19.000Z</time>
      </trkpt>
      <trkpt lat="48.89404" lon="1.28478">
        <ele>141.19999694824</ele>
        <time>2012-02-20T14:22:24.000Z</time>
      </trkpt>
      <trkpt lat="48.894" lon="1.28497">
        <ele>141.19999694824</ele>
        <time>2012-02-20T14:22:29.000Z</time>
      </trkpt>
      <trkpt lat="48.89396" lon="1.28516">
        <ele>141.19999694824</ele>
        <time>2012-02-20T14:22:33.000Z</time>
      </trkpt>
      <trkpt lat="48.89395" lon="1.28536">
        <ele>141.19999694824</ele>
        <time>2012-02-20T14:22:38.000Z</time>
      </trkpt>
      <trkpt lat="48.89392" lon="1.2856">
        <ele>141</ele>
        <time>2012-02-20T14:22:44.000Z</time>
      </trkpt>
      <trkpt lat="48.89391" lon="1.28581">
        <ele>141</ele>
        <time>2012-02-20T14:22:49.000Z</time>
      </trkpt>
      <trkpt lat="48.89389" lon="1.28603">
        <ele>141</ele>
        <time>2012-02-20T14:22:54.000Z</time>
      </trkpt>
      <trkpt lat="48.89389" lon="1.28626">
        <ele>141</ele>
        <time>2012-02-20T14:22:59.000Z</time>
      </trkpt>
      <trkpt lat="48.89389" lon="1.28647">
        <ele>141</ele>
        <time>2012-02-20T14:23:04.000Z</time>
      </trkpt>
      <trkpt lat="48.89388" lon="1.28673">
        <ele>140.80000305176</ele>
        <time>2012-02-20T14:23:10.000Z</time>
      </trkpt>
      <trkpt lat="48.89388" lon="1.28694">
        <ele>140.60000610352</ele>
        <time>2012-02-20T14:23:15.000Z</time>
      </trkpt>
      <trkpt lat="48.89387" lon="1.2872">
        <ele>140.19999694824</ele>
        <time>2012-02-20T14:23:21.000Z</time>
      </trkpt>
      <trkpt lat="48.89387" lon="1.28742">
        <ele>139.80000305176</ele>
        <time>2012-02-20T14:23:26.000Z</time>
      </trkpt>
      <trkpt lat="48.89387" lon="1.28772">
        <ele>139.39999389648</ele>
        <time>2012-02-20T14:23:33.000Z</time>
      </trkpt>
      <trkpt lat="48.89387" lon="1.28799">
        <ele>139</ele>
        <time>2012-02-20T14:23:39.000Z</time>
      </trkpt>
      <trkpt lat="48.89387" lon="1.28822">
        <ele>138.80000305176</ele>
        <time>2012-02-20T14:23:44.000Z</time>
      </trkpt>
      <trkpt lat="48.89386" lon="1.28849">
        <ele>138.39999389648</ele>
        <time>2012-02-20T14:23:50.000Z</time>
      </trkpt>
      <trkpt lat="48.89386" lon="1.28866">
        <ele>138</ele>
        <time>2012-02-20T14:23:54.000Z</time>
      </trkpt>
      <trkpt lat="48.89385" lon="1.28892">
        <ele>137.60000610352</ele>
        <time>2012-02-20T14:24:00.000Z</time>
      </trkpt>
      <trkpt lat="48.89385" lon="1.28917">
        <ele>137.19999694824</ele>
        <time>2012-02-20T14:24:06.000Z</time>
      </trkpt>
      <trkpt lat="48.89385" lon="1.28938">
        <ele>137.39999389648</ele>
        <time>2012-02-20T14:24:11.000Z</time>
      </trkpt>
      <trkpt lat="48.89383" lon="1.28958">
        <ele>137.60000610352</ele>
        <time>2012-02-20T14:24:16.000Z</time>
      </trkpt>
      <trkpt lat="48.89383" lon="1.28974">
        <ele>137.80000305176</ele>
        <time>2012-02-20T14:24:20.000Z</time>
      </trkpt>
      <trkpt lat="48.89383" lon="1.28996">
        <ele>138.19999694824</ele>
        <time>2012-02-20T14:24:25.000Z</time>
      </trkpt>
      <trkpt lat="48.89384" lon="1.2902">
        <ele>138.60000610352</ele>
        <time>2012-02-20T14:24:31.000Z</time>
      </trkpt>
      <trkpt lat="48.89385" lon="1.29036">
        <ele>138.80000305176</ele>
        <time>2012-02-20T14:24:35.000Z</time>
      </trkpt>
      <trkpt lat="48.89388" lon="1.29056">
        <ele>139.19999694824</ele>
        <time>2012-02-20T14:24:40.000Z</time>
      </trkpt>
      <trkpt lat="48.89392" lon="1.29084">
        <ele>139.60000610352</ele>
        <time>2012-02-20T14:24:47.000Z</time>
      </trkpt>
      <trkpt lat="48.89393" lon="1.29102">
        <ele>139.60000610352</ele>
        <time>2012-02-20T14:24:51.000Z</time>
      </trkpt>
      <trkpt lat="48.89397" lon="1.29119">
        <ele>139.60000610352</ele>
        <time>2012-02-20T14:24:55.000Z</time>
      </trkpt>
      <trkpt lat="48.89402" lon="1.2914">
        <ele>139.60000610352</ele>
        <time>2012-02-20T14:25:00.000Z</time>
      </trkpt>
      <trkpt lat="48.89407" lon="1.29155">
        <ele>139.80000305176</ele>
        <time>2012-02-20T14:25:04.000Z</time>
      </trkpt>
      <trkpt lat="48.89412" lon="1.29179">
        <ele>140</ele>
        <time>2012-02-20T14:25:10.000Z</time>
      </trkpt>
      <trkpt lat="48.89413" lon="1.29186">
        <ele>140</ele>
        <time>2012-02-20T14:25:12.000Z</time>
      </trkpt>
      <trkpt lat="48.89408" lon="1.2919">
        <ele>139.80000305176</ele>
        <time>2012-02-20T14:25:14.000Z</time>
      </trkpt>
      <trkpt lat="48.89395" lon="1.29199">
        <ele>139.60000610352</ele>
        <time>2012-02-20T14:25:18.000Z</time>
      </trkpt>
      <trkpt lat="48.89393" lon="1.29201">
        <ele>139.60000610352</ele>
        <time>2012-02-20T14:25:19.000Z</time>
      </trkpt>
      <trkpt lat="48.89378" lon="1.29212">
        <ele>139.19999694824</ele>
        <time>2012-02-20T14:25:24.000Z</time>
      </trkpt>
      <trkpt lat="48.89366" lon="1.29218">
        <ele>139</ele>
        <time>2012-02-20T14:25:28.000Z</time>
      </trkpt>
      <trkpt lat="48.8935" lon="1.2923">
        <ele>138.60000610352</ele>
        <time>2012-02-20T14:25:34.000Z</time>
      </trkpt>
      <trkpt lat="48.89347" lon="1.29232">
        <ele>138.60000610352</ele>
        <time>2012-02-20T14:25:35.000Z</time>
      </trkpt>
      <trkpt lat="48.89334" lon="1.29242">
        <ele>138.19999694824</ele>
        <time>2012-02-20T14:25:40.000Z</time>
      </trkpt>
      <trkpt lat="48.89315" lon="1.29252">
        <ele>137.60000610352</ele>
        <time>2012-02-20T14:25:47.000Z</time>
      </trkpt>
      <trkpt lat="48.893" lon="1.29262">
        <ele>137</ele>
        <time>2012-02-20T14:25:53.000Z</time>
      </trkpt>
      <trkpt lat="48.89287" lon="1.29271">
        <ele>136.60000610352</ele>
        <time>2012-02-20T14:25:58.000Z</time>
      </trkpt>
      <trkpt lat="48.89283" lon="1.2928">
        <ele>136.60000610352</ele>
        <time>2012-02-20T14:26:01.000Z</time>
      </trkpt>
      <trkpt lat="48.89284" lon="1.29284">
        <ele>136.39999389648</ele>
        <time>2012-02-20T14:26:02.000Z</time>
      </trkpt>
      <trkpt lat="48.89288" lon="1.29298">
        <ele>136.39999389648</ele>
        <time>2012-02-20T14:26:06.000Z</time>
      </trkpt>
      <trkpt lat="48.89293" lon="1.29313">
        <ele>136.19999694824</ele>
        <time>2012-02-20T14:26:10.000Z</time>
      </trkpt>
      <trkpt lat="48.89294" lon="1.29316">
        <ele>136.19999694824</ele>
        <time>2012-02-20T14:26:11.000Z</time>
      </trkpt>
      <trkpt lat="48.89301" lon="1.29335">
        <ele>136</ele>
        <time>2012-02-20T14:26:16.000Z</time>
      </trkpt>
      <trkpt lat="48.89307" lon="1.29353">
        <ele>135.80000305176</ele>
        <time>2012-02-20T14:26:21.000Z</time>
      </trkpt>
      <trkpt lat="48.8931" lon="1.29369">
        <ele>135.60000610352</ele>
        <time>2012-02-20T14:26:25.000Z</time>
      </trkpt>
      <trkpt lat="48.89311" lon="1.29376">
        <ele>135.60000610352</ele>
        <time>2012-02-20T14:26:27.000Z</time>
      </trkpt>
      <trkpt lat="48.89314" lon="1.29389">
        <ele>135.39999389648</ele>
        <time>2012-02-20T14:26:30.000Z</time>
      </trkpt>
      <trkpt lat="48.89319" lon="1.2941">
        <ele>135.19999694824</ele>
        <time>2012-02-20T14:26:35.000Z</time>
      </trkpt>
      <trkpt lat="48.89323" lon="1.29429">
        <ele>135.19999694824</ele>
        <time>2012-02-20T14:26:40.000Z</time>
      </trkpt>
      <trkpt lat="48.89326" lon="1.29449">
        <ele>135.19999694824</ele>
        <time>2012-02-20T14:26:45.000Z</time>
      </trkpt>
      <trkpt lat="48.89332" lon="1.29474">
        <ele>135</ele>
        <time>2012-02-20T14:26:51.000Z</time>
      </trkpt>
      <trkpt lat="48.89335" lon="1.29481">
        <ele>135</ele>
        <time>2012-02-20T14:26:53.000Z</time>
      </trkpt>
      <trkpt lat="48.89337" lon="1.29487">
        <ele>135</ele>
        <time>2012-02-20T14:26:55.000Z</time>
      </trkpt>
      <trkpt lat="48.89338" lon="1.29495">
        <ele>135.19999694824</ele>
        <time>2012-02-20T14:26:57.000Z</time>
      </trkpt>
      <trkpt lat="48.8934" lon="1.29504">
        <ele>135.19999694824</ele>
        <time>2012-02-20T14:26:59.000Z</time>
      </trkpt>
      <trkpt lat="48.89343" lon="1.29519">
        <ele>135.19999694824</ele>
        <time>2012-02-20T14:27:03.000Z</time>
      </trkpt>
      <trkpt lat="48.89345" lon="1.29525">
        <ele>135.19999694824</ele>
        <time>2012-02-20T14:27:05.000Z</time>
      </trkpt>
      <trkpt lat="48.89348" lon="1.29531">
        <ele>135.19999694824</ele>
        <time>2012-02-20T14:27:07.000Z</time>
      </trkpt>
      <trkpt lat="48.89357" lon="1.2954">
        <ele>135.39999389648</ele>
        <time>2012-02-20T14:27:11.000Z</time>
      </trkpt>
      <trkpt lat="48.89362" lon="1.29558">
        <ele>135.39999389648</ele>
        <time>2012-02-20T14:27:16.000Z</time>
      </trkpt>
      <trkpt lat="48.89363" lon="1.29566">
        <ele>135.39999389648</ele>
        <time>2012-02-20T14:27:19.000Z</time>
      </trkpt>
      <trkpt lat="48.89365" lon="1.2957">
        <ele>135.39999389648</ele>
        <time>2012-02-20T14:27:20.000Z</time>
      </trkpt>
      <trkpt lat="48.8937" lon="1.29579">
        <ele>135.39999389648</ele>
        <time>2012-02-20T14:27:23.000Z</time>
      </trkpt>
      <trkpt lat="48.89371" lon="1.29582">
        <ele>135.39999389648</ele>
        <time>2012-02-20T14:27:24.000Z</time>
      </trkpt>
      <trkpt lat="48.89373" lon="1.29584">
        <ele>135.39999389648</ele>
        <time>2012-02-20T14:27:25.000Z</time>
      </trkpt>
      <trkpt lat="48.89374" lon="1.29596">
        <ele>135.19999694824</ele>
        <time>2012-02-20T14:27:28.000Z</time>
      </trkpt>
      <trkpt lat="48.89374" lon="1.29618">
        <ele>134.80000305176</ele>
        <time>2012-02-20T14:27:33.000Z</time>
      </trkpt>
      <trkpt lat="48.89375" lon="1.29639">
        <ele>134.60000610352</ele>
        <time>2012-02-20T14:27:38.000Z</time>
      </trkpt>
      <trkpt lat="48.89375" lon="1.29661">
        <ele>134</ele>
        <time>2012-02-20T14:27:43.000Z</time>
      </trkpt>
      <trkpt lat="48.89376" lon="1.29678">
        <ele>133.80000305176</ele>
        <time>2012-02-20T14:27:47.000Z</time>
      </trkpt>
      <trkpt lat="48.89378" lon="1.29696">
        <ele>133.19999694824</ele>
        <time>2012-02-20T14:27:51.000Z</time>
      </trkpt>
      <trkpt lat="48.89379" lon="1.29699">
        <ele>133.19999694824</ele>
        <time>2012-02-20T14:27:52.000Z</time>
      </trkpt>
      <trkpt lat="48.8938" lon="1.29712">
        <ele>133</ele>
        <time>2012-02-20T14:27:55.000Z</time>
      </trkpt>
      <trkpt lat="48.89377" lon="1.29737">
        <ele>132.39999389648</ele>
        <time>2012-02-20T14:28:00.000Z</time>
      </trkpt>
      <trkpt lat="48.89374" lon="1.2976">
        <ele>131.60000610352</ele>
        <time>2012-02-20T14:28:04.000Z</time>
      </trkpt>
      <trkpt lat="48.89373" lon="1.29766">
        <ele>131.60000610352</ele>
        <time>2012-02-20T14:28:05.000Z</time>
      </trkpt>
      <trkpt lat="48.8937" lon="1.29794">
        <ele>130.60000610352</ele>
        <time>2012-02-20T14:28:11.000Z</time>
      </trkpt>
      <trkpt lat="48.89368" lon="1.29818">
        <ele>129.80000305176</ele>
        <time>2012-02-20T14:28:16.000Z</time>
      </trkpt>
      <trkpt lat="48.89365" lon="1.29839">
        <ele>129.39999389648</ele>
        <time>2012-02-20T14:28:21.000Z</time>
      </trkpt>
      <trkpt lat="48.89363" lon="1.29859">
        <ele>129</ele>
        <time>2012-02-20T14:28:26.000Z</time>
      </trkpt>
      <trkpt lat="48.8936" lon="1.29877">
        <ele>128.80000305176</ele>
        <time>2012-02-20T14:28:30.000Z</time>
      </trkpt>
      <trkpt lat="48.89355" lon="1.29895">
        <ele>128.60000610352</ele>
        <time>2012-02-20T14:28:34.000Z</time>
      </trkpt>
      <trkpt lat="48.89349" lon="1.29914">
        <ele>128.19999694824</ele>
        <time>2012-02-20T14:28:39.000Z</time>
      </trkpt>
      <trkpt lat="48.89342" lon="1.29933">
        <ele>129</ele>
        <time>2012-02-20T14:28:44.000Z</time>
      </trkpt>
      <trkpt lat="48.89336" lon="1.29952">
        <ele>129.80000305176</ele>
        <time>2012-02-20T14:28:49.000Z</time>
      </trkpt>
      <trkpt lat="48.89328" lon="1.29972">
        <ele>130.60000610352</ele>
        <time>2012-02-20T14:28:54.000Z</time>
      </trkpt>
      <trkpt lat="48.89331" lon="1.29986">
        <ele>131.19999694824</ele>
        <time>2012-02-20T14:28:58.000Z</time>
      </trkpt>
      <trkpt lat="48.89332" lon="1.29986">
        <ele>131.39999389648</ele>
        <time>2012-02-20T14:28:59.000Z</time>
      </trkpt>
      <trkpt lat="48.89334" lon="1.29986">
        <ele>131.39999389648</ele>
        <time>2012-02-20T14:29:01.000Z</time>
      </trkpt>
      <trkpt lat="48.89335" lon="1.29985">
        <ele>131.39999389648</ele>
        <time>2012-02-20T14:32:23.000Z</time>
      </trkpt>
      <trkpt lat="48.89335" lon="1.29984">
        <ele>131.39999389648</ele>
        <time>2012-02-20T14:32:24.000Z</time>
      </trkpt>
      <trkpt lat="48.89338" lon="1.2998">
        <ele>131.19999694824</ele>
        <time>2012-02-20T14:32:26.000Z</time>
      </trkpt>
      <trkpt lat="48.8934" lon="1.29977">
        <ele>131.19999694824</ele>
        <time>2012-02-20T14:32:27.000Z</time>
      </trkpt>
      <trkpt lat="48.89352" lon="1.29963">
        <ele>131</ele>
        <time>2012-02-20T14:32:32.000Z</time>
      </trkpt>
      <trkpt lat="48.8936" lon="1.29959">
        <ele>131</ele>
        <time>2012-02-20T14:32:35.000Z</time>
      </trkpt>
      <trkpt lat="48.89362" lon="1.29959">
        <ele>131</ele>
        <time>2012-02-20T14:32:36.000Z</time>
      </trkpt>
      <trkpt lat="48.89363" lon="1.29963">
        <ele>131.39999389648</ele>
        <time>2012-02-20T14:32:39.000Z</time>
      </trkpt>
      <trkpt lat="48.89362" lon="1.29963">
        <ele>131.39999389648</ele>
        <time>2012-02-20T14:32:40.000Z</time>
      </trkpt>
      <trkpt lat="48.89356" lon="1.29974">
        <ele>131.80000305176</ele>
        <time>2012-02-20T14:32:46.000Z</time>
      </trkpt>
      <trkpt lat="48.89355" lon="1.29988">
        <ele>132.60000610352</ele>
        <time>2012-02-20T14:32:50.000Z</time>
      </trkpt>
      <trkpt lat="48.89355" lon="1.29991">
        <ele>132.80000305176</ele>
        <time>2012-02-20T14:32:52.000Z</time>
      </trkpt>
      <trkpt lat="48.89356" lon="1.29992">
        <ele>132.80000305176</ele>
        <time>2012-02-20T14:32:53.000Z</time>
      </trkpt>
      <trkpt lat="48.89358" lon="1.29993">
        <ele>133</ele>
        <time>2012-02-20T14:32:54.000Z</time>
      </trkpt>
      <trkpt lat="48.89369" lon="1.3">
        <ele>134.19999694824</ele>
        <time>2012-02-20T14:32:59.000Z</time>
      </trkpt>
      <trkpt lat="48.89372" lon="1.30003">
        <ele>134.39999389648</ele>
        <time>2012-02-20T14:33:01.000Z</time>
      </trkpt>
      <trkpt lat="48.89378" lon="1.30007">
        <ele>135</ele>
        <time>2012-02-20T14:33:04.000Z</time>
      </trkpt>
      <trkpt lat="48.89388" lon="1.30012">
        <ele>136</ele>
        <time>2012-02-20T14:33:08.000Z</time>
      </trkpt>
      <trkpt lat="48.894" lon="1.30002">
        <ele>136.19999694824</ele>
        <time>2012-02-20T14:33:12.000Z</time>
      </trkpt>
      <trkpt lat="48.89408" lon="1.29991">
        <ele>135.60000610352</ele>
        <time>2012-02-20T14:33:17.000Z</time>
      </trkpt>
      <trkpt lat="48.89414" lon="1.2999">
        <ele>135.80000305176</ele>
        <time>2012-02-20T14:33:21.000Z</time>
      </trkpt>
      <trkpt lat="48.89416" lon="1.2999">
        <ele>136</ele>
        <time>2012-02-20T14:33:22.000Z</time>
      </trkpt>
      <trkpt lat="48.89425" lon="1.29994">
        <ele>136.60000610352</ele>
        <time>2012-02-20T14:33:26.000Z</time>
      </trkpt>
      <trkpt lat="48.89434" lon="1.29996">
        <ele>136.80000305176</ele>
        <time>2012-02-20T14:33:30.000Z</time>
      </trkpt>
      <trkpt lat="48.89436" lon="1.29996">
        <ele>136.80000305176</ele>
        <time>2012-02-20T14:33:31.000Z</time>
      </trkpt>
      <trkpt lat="48.89451" lon="1.3">
        <ele>137.39999389648</ele>
        <time>2012-02-20T14:33:36.000Z</time>
      </trkpt>
      <trkpt lat="48.89461" lon="1.29997">
        <ele>137.19999694824</ele>
        <time>2012-02-20T14:33:40.000Z</time>
      </trkpt>
      <trkpt lat="48.89471" lon="1.29998">
        <ele>137.39999389648</ele>
        <time>2012-02-20T14:33:45.000Z</time>
      </trkpt>
      <trkpt lat="48.89484" lon="1.29995">
        <ele>137.39999389648</ele>
        <time>2012-02-20T14:33:50.000Z</time>
      </trkpt>
      <trkpt lat="48.89489" lon="1.29994">
        <ele>137.39999389648</ele>
        <time>2012-02-20T14:33:52.000Z</time>
      </trkpt>
      <trkpt lat="48.89492" lon="1.29992">
        <ele>137.19999694824</ele>
        <time>2012-02-20T14:33:53.000Z</time>
      </trkpt>
      <trkpt lat="48.89497" lon="1.29989">
        <ele>137</ele>
        <time>2012-02-20T14:33:55.000Z</time>
      </trkpt>
      <trkpt lat="48.89506" lon="1.29989">
        <ele>137.39999389648</ele>
        <time>2012-02-20T14:33:59.000Z</time>
      </trkpt>
      <trkpt lat="48.89508" lon="1.29989">
        <ele>137.39999389648</ele>
        <time>2012-02-20T14:34:00.000Z</time>
      </trkpt>
      <trkpt lat="48.89511" lon="1.29987">
        <ele>137.60000610352</ele>
        <time>2012-02-20T14:34:01.000Z</time>
      </trkpt>
      <trkpt lat="48.89522" lon="1.29984">
        <ele>138</ele>
        <time>2012-02-20T14:34:04.000Z</time>
      </trkpt>
      <trkpt lat="48.89527" lon="1.29984">
        <ele>138.39999389648</ele>
        <time>2012-02-20T14:34:07.000Z</time>
      </trkpt>
      <trkpt lat="48.89531" lon="1.29983">
        <ele>138.60000610352</ele>
        <time>2012-02-20T14:34:08.000Z</time>
      </trkpt>
      <trkpt lat="48.89537" lon="1.29978">
        <ele>138.39999389648</ele>
        <time>2012-02-20T14:34:10.000Z</time>
      </trkpt>
      <trkpt lat="48.89543" lon="1.29975">
        <ele>138.60000610352</ele>
        <time>2012-02-20T14:34:13.000Z</time>
      </trkpt>
      <trkpt lat="48.89549" lon="1.29971">
        <ele>138.60000610352</ele>
        <time>2012-02-20T14:34:18.000Z</time>
      </trkpt>
      <trkpt lat="48.89549" lon="1.29969">
        <ele>138.39999389648</ele>
        <time>2012-02-20T14:34:19.000Z</time>
      </trkpt>
      <trkpt lat="48.8955" lon="1.29967">
        <ele>138.19999694824</ele>
        <time>2012-02-20T14:34:20.000Z</time>
      </trkpt>
      <trkpt lat="48.89559" lon="1.29959">
        <ele>138</ele>
        <time>2012-02-20T14:34:23.000Z</time>
      </trkpt>
      <trkpt lat="48.89566" lon="1.29946">
        <ele>137</ele>
        <time>2012-02-20T14:34:27.000Z</time>
      </trkpt>
      <trkpt lat="48.89567" lon="1.29946">
        <ele>137</ele>
        <time>2012-02-20T14:34:28.000Z</time>
      </trkpt>
      <trkpt lat="48.89573" lon="1.29943">
        <ele>137.19999694824</ele>
        <time>2012-02-20T14:34:31.000Z</time>
      </trkpt>
      <trkpt lat="48.89574" lon="1.29942">
        <ele>137</ele>
        <time>2012-02-20T14:34:32.000Z</time>
      </trkpt>
      <trkpt lat="48.8958" lon="1.29932">
        <ele>136.39999389648</ele>
        <time>2012-02-20T14:34:36.000Z</time>
      </trkpt>
      <trkpt lat="48.89588" lon="1.29927">
        <ele>136.60000610352</ele>
        <time>2012-02-20T14:34:40.000Z</time>
      </trkpt>
      <trkpt lat="48.89589" lon="1.29929">
        <ele>137</ele>
        <time>2012-02-20T14:34:41.000Z</time>
      </trkpt>
      <trkpt lat="48.89595" lon="1.29938">
        <ele>138.60000610352</ele>
        <time>2012-02-20T14:34:45.000Z</time>
      </trkpt>
      <trkpt lat="48.89596" lon="1.2995">
        <ele>139.60000610352</ele>
        <time>2012-02-20T14:34:49.000Z</time>
      </trkpt>
      <trkpt lat="48.89597" lon="1.29965">
        <ele>141.19999694824</ele>
        <time>2012-02-20T14:34:54.000Z</time>
      </trkpt>
      <trkpt lat="48.89609" lon="1.29976">
        <ele>143</ele>
        <time>2012-02-20T14:35:00.000Z</time>
      </trkpt>
      <trkpt lat="48.89611" lon="1.29979">
        <ele>143.19999694824</ele>
        <time>2012-02-20T14:35:01.000Z</time>
      </trkpt>
      <trkpt lat="48.89619" lon="1.2999">
        <ele>144.60000610352</ele>
        <time>2012-02-20T14:35:05.000Z</time>
      </trkpt>
      <trkpt lat="48.89621" lon="1.2999">
        <ele>144.60000610352</ele>
        <time>2012-02-20T14:35:06.000Z</time>
      </trkpt>
      <trkpt lat="48.89627" lon="1.29986">
        <ele>144.60000610352</ele>
        <time>2012-02-20T14:35:09.000Z</time>
      </trkpt>
      <trkpt lat="48.89633" lon="1.29978">
        <ele>144.60000610352</ele>
        <time>2012-02-20T14:35:13.000Z</time>
      </trkpt>
      <trkpt lat="48.89635" lon="1.29977">
        <ele>144.60000610352</ele>
        <time>2012-02-20T14:35:14.000Z</time>
      </trkpt>
      <trkpt lat="48.89643" lon="1.29964">
        <ele>144.39999389648</ele>
        <time>2012-02-20T14:35:19.000Z</time>
      </trkpt>
      <trkpt lat="48.89644" lon="1.29959">
        <ele>144.19999694824</ele>
        <time>2012-02-20T14:35:20.000Z</time>
      </trkpt>
      <trkpt lat="48.8965" lon="1.29952">
        <ele>144.39999389648</ele>
        <time>2012-02-20T14:35:23.000Z</time>
      </trkpt>
      <trkpt lat="48.89659" lon="1.2994">
        <ele>144.80000305176</ele>
        <time>2012-02-20T14:35:27.000Z</time>
      </trkpt>
      <trkpt lat="48.89665" lon="1.29929">
        <ele>145.19999694824</ele>
        <time>2012-02-20T14:35:30.000Z</time>
      </trkpt>
      <trkpt lat="48.89663" lon="1.29925">
        <ele>144.80000305176</ele>
        <time>2012-02-20T14:35:31.000Z</time>
      </trkpt>
      <trkpt lat="48.89655" lon="1.2991">
        <ele>143.19999694824</ele>
        <time>2012-02-20T14:35:35.000Z</time>
      </trkpt>
      <trkpt lat="48.89647" lon="1.29892">
        <ele>141.39999389648</ele>
        <time>2012-02-20T14:35:40.000Z</time>
      </trkpt>
      <trkpt lat="48.89644" lon="1.29887">
        <ele>140.80000305176</ele>
        <time>2012-02-20T14:35:42.000Z</time>
      </trkpt>
      <trkpt lat="48.8964" lon="1.29878">
        <ele>139.80000305176</ele>
        <time>2012-02-20T14:35:45.000Z</time>
      </trkpt>
      <trkpt lat="48.89637" lon="1.29871">
        <ele>139</ele>
        <time>2012-02-20T14:35:47.000Z</time>
      </trkpt>
      <trkpt lat="48.89633" lon="1.29864">
        <ele>138.19999694824</ele>
        <time>2012-02-20T14:35:49.000Z</time>
      </trkpt>
      <trkpt lat="48.89635" lon="1.29852">
        <ele>137.80000305176</ele>
        <time>2012-02-20T14:35:53.000Z</time>
      </trkpt>
      <trkpt lat="48.89638" lon="1.29844">
        <ele>137.80000305176</ele>
        <time>2012-02-20T14:35:55.000Z</time>
      </trkpt>
      <trkpt lat="48.89642" lon="1.29834">
        <ele>137.60000610352</ele>
        <time>2012-02-20T14:35:58.000Z</time>
      </trkpt>
      <trkpt lat="48.8965" lon="1.29818">
        <ele>137.60000610352</ele>
        <time>2012-02-20T14:36:03.000Z</time>
      </trkpt>
      <trkpt lat="48.89656" lon="1.29802">
        <ele>137.19999694824</ele>
        <time>2012-02-20T14:36:07.000Z</time>
      </trkpt>
      <trkpt lat="48.89666" lon="1.29788">
        <ele>136.80000305176</ele>
        <time>2012-02-20T14:36:11.000Z</time>
      </trkpt>
      <trkpt lat="48.89676" lon="1.29778">
        <ele>136.80000305176</ele>
        <time>2012-02-20T14:36:16.000Z</time>
      </trkpt>
      <trkpt lat="48.89683" lon="1.29768">
        <ele>136.80000305176</ele>
        <time>2012-02-20T14:36:20.000Z</time>
      </trkpt>
      <trkpt lat="48.89692" lon="1.29759">
        <ele>137</ele>
        <time>2012-02-20T14:36:24.000Z</time>
      </trkpt>
      <trkpt lat="48.89695" lon="1.29755">
        <ele>137</ele>
        <time>2012-02-20T14:36:25.000Z</time>
      </trkpt>
      <trkpt lat="48.89711" lon="1.29737">
        <ele>137.60000610352</ele>
        <time>2012-02-20T14:36:31.000Z</time>
      </trkpt>
      <trkpt lat="48.89729" lon="1.29722">
        <ele>138.60000610352</ele>
        <time>2012-02-20T14:36:37.000Z</time>
      </trkpt>
      <trkpt lat="48.8974" lon="1.2971">
        <ele>138.80000305176</ele>
        <time>2012-02-20T14:36:42.000Z</time>
      </trkpt>
      <trkpt lat="48.89748" lon="1.29705">
        <ele>139.19999694824</ele>
        <time>2012-02-20T14:36:46.000Z</time>
      </trkpt>
      <trkpt lat="48.89756" lon="1.297">
        <ele>139.60000610352</ele>
        <time>2012-02-20T14:36:50.000Z</time>
      </trkpt>
      <trkpt lat="48.8976" lon="1.29699">
        <ele>139.80000305176</ele>
        <time>2012-02-20T14:36:53.000Z</time>
      </trkpt>
      <trkpt lat="48.89763" lon="1.29699">
        <ele>140</ele>
        <time>2012-02-20T14:36:55.000Z</time>
      </trkpt>
      <trkpt lat="48.89763" lon="1.29697">
        <ele>139.80000305176</ele>
        <time>2012-02-20T14:36:56.000Z</time>
      </trkpt>
      <trkpt lat="48.89772" lon="1.29684">
        <ele>140</ele>
        <time>2012-02-20T14:36:59.000Z</time>
      </trkpt>
      <trkpt lat="48.89773" lon="1.29683">
        <ele>140</ele>
        <time>2012-02-20T14:37:00.000Z</time>
      </trkpt>
      <trkpt lat="48.89776" lon="1.29681">
        <ele>140.19999694824</ele>
        <time>2012-02-20T14:37:02.000Z</time>
      </trkpt>
      <trkpt lat="48.89778" lon="1.29678">
        <ele>140.19999694824</ele>
        <time>2012-02-20T14:37:03.000Z</time>
      </trkpt>
      <trkpt lat="48.89788" lon="1.29658">
        <ele>140.39999389648</ele>
        <time>2012-02-20T14:37:08.000Z</time>
      </trkpt>
      <trkpt lat="48.89797" lon="1.29639">
        <ele>140.80000305176</ele>
        <time>2012-02-20T14:37:13.000Z</time>
      </trkpt>
      <trkpt lat="48.898" lon="1.29631">
        <ele>140.80000305176</ele>
        <time>2012-02-20T14:37:15.000Z</time>
      </trkpt>
      <trkpt lat="48.89804" lon="1.29625">
        <ele>141</ele>
        <time>2012-02-20T14:37:17.000Z</time>
      </trkpt>
      <trkpt lat="48.89808" lon="1.29613">
        <ele>141</ele>
        <time>2012-02-20T14:37:20.000Z</time>
      </trkpt>
      <trkpt lat="48.89808" lon="1.29606">
        <ele>141</ele>
        <time>2012-02-20T14:37:22.000Z</time>
      </trkpt>
      <trkpt lat="48.89814" lon="1.29589">
        <ele>141</ele>
        <time>2012-02-20T14:37:26.000Z</time>
      </trkpt>
      <trkpt lat="48.89815" lon="1.29576">
        <ele>141.19999694824</ele>
        <time>2012-02-20T14:37:29.000Z</time>
      </trkpt>
      <trkpt lat="48.89814" lon="1.2957">
        <ele>141.19999694824</ele>
        <time>2012-02-20T14:37:31.000Z</time>
      </trkpt>
      <trkpt lat="48.89811" lon="1.29556">
        <ele>141.19999694824</ele>
        <time>2012-02-20T14:37:35.000Z</time>
      </trkpt>
      <trkpt lat="48.89812" lon="1.29553">
        <ele>141.19999694824</ele>
        <time>2012-02-20T14:37:36.000Z</time>
      </trkpt>
      <trkpt lat="48.89815" lon="1.29535">
        <ele>141.80000305176</ele>
        <time>2012-02-20T14:37:40.000Z</time>
      </trkpt>
      <trkpt lat="48.89816" lon="1.29516">
        <ele>142.19999694824</ele>
        <time>2012-02-20T14:37:44.000Z</time>
      </trkpt>
      <trkpt lat="48.89814" lon="1.29508">
        <ele>142.19999694824</ele>
        <time>2012-02-20T14:37:46.000Z</time>
      </trkpt>
      <trkpt lat="48.8981" lon="1.29498">
        <ele>142</ele>
        <time>2012-02-20T14:37:51.000Z</time>
      </trkpt>
      <trkpt lat="48.89809" lon="1.29491">
        <ele>141.80000305176</ele>
        <time>2012-02-20T14:37:53.000Z</time>
      </trkpt>
      <trkpt lat="48.89803" lon="1.29481">
        <ele>141.19999694824</ele>
        <time>2012-02-20T14:37:56.000Z</time>
      </trkpt>
      <trkpt lat="48.898" lon="1.29467">
        <ele>140.80000305176</ele>
        <time>2012-02-20T14:38:00.000Z</time>
      </trkpt>
      <trkpt lat="48.89801" lon="1.29455">
        <ele>140.80000305176</ele>
        <time>2012-02-20T14:38:02.000Z</time>
      </trkpt>
      <trkpt lat="48.898" lon="1.29441">
        <ele>140.39999389648</ele>
        <time>2012-02-20T14:38:06.000Z</time>
      </trkpt>
      <trkpt lat="48.89805" lon="1.29419">
        <ele>140.60000610352</ele>
        <time>2012-02-20T14:38:12.000Z</time>
      </trkpt>
      <trkpt lat="48.89807" lon="1.2941">
        <ele>140.60000610352</ele>
        <time>2012-02-20T14:38:14.000Z</time>
      </trkpt>
      <trkpt lat="48.89805" lon="1.29399">
        <ele>140.39999389648</ele>
        <time>2012-02-20T14:38:16.000Z</time>
      </trkpt>
      <trkpt lat="48.89801" lon="1.29378">
        <ele>139.80000305176</ele>
        <time>2012-02-20T14:38:20.000Z</time>
      </trkpt>
      <trkpt lat="48.89805" lon="1.29365">
        <ele>140</ele>
        <time>2012-02-20T14:38:24.000Z</time>
      </trkpt>
      <trkpt lat="48.89808" lon="1.29363">
        <ele>140.19999694824</ele>
        <time>2012-02-20T14:38:25.000Z</time>
      </trkpt>
      <trkpt lat="48.89811" lon="1.29351">
        <ele>140.39999389648</ele>
        <time>2012-02-20T14:38:28.000Z</time>
      </trkpt>
      <trkpt lat="48.8982" lon="1.29324">
        <ele>140.60000610352</ele>
        <time>2012-02-20T14:38:35.000Z</time>
      </trkpt>
      <trkpt lat="48.89821" lon="1.2932">
        <ele>140.60000610352</ele>
        <time>2012-02-20T14:38:36.000Z</time>
      </trkpt>
      <trkpt lat="48.89823" lon="1.29316">
        <ele>140.60000610352</ele>
        <time>2012-02-20T14:38:37.000Z</time>
      </trkpt>
      <trkpt lat="48.89827" lon="1.29303">
        <ele>140.39999389648</ele>
        <time>2012-02-20T14:38:40.000Z</time>
      </trkpt>
      <trkpt lat="48.89831" lon="1.29297">
        <ele>140.60000610352</ele>
        <time>2012-02-20T14:38:42.000Z</time>
      </trkpt>
      <trkpt lat="48.89832" lon="1.29291">
        <ele>140.39999389648</ele>
        <time>2012-02-20T14:38:44.000Z</time>
      </trkpt>
      <trkpt lat="48.8984" lon="1.29277">
        <ele>140.39999389648</ele>
        <time>2012-02-20T14:38:49.000Z</time>
      </trkpt>
      <trkpt lat="48.89843" lon="1.29274">
        <ele>140.39999389648</ele>
        <time>2012-02-20T14:38:50.000Z</time>
      </trkpt>
      <trkpt lat="48.8985" lon="1.29272">
        <ele>140.80000305176</ele>
        <time>2012-02-20T14:38:54.000Z</time>
      </trkpt>
      <trkpt lat="48.89854" lon="1.29272">
        <ele>141</ele>
        <time>2012-02-20T14:38:56.000Z</time>
      </trkpt>
      <trkpt lat="48.89862" lon="1.29273">
        <ele>141.60000610352</ele>
        <time>2012-02-20T14:38:59.000Z</time>
      </trkpt>
      <trkpt lat="48.89864" lon="1.29272">
        <ele>141.60000610352</ele>
        <time>2012-02-20T14:39:00.000Z</time>
      </trkpt>
      <trkpt lat="48.89875" lon="1.2927">
        <ele>142.19999694824</ele>
        <time>2012-02-20T14:39:04.000Z</time>
      </trkpt>
      <trkpt lat="48.89887" lon="1.29265">
        <ele>142.80000305176</ele>
        <time>2012-02-20T14:39:09.000Z</time>
      </trkpt>
      <trkpt lat="48.89889" lon="1.29262">
        <ele>142.80000305176</ele>
        <time>2012-02-20T14:39:10.000Z</time>
      </trkpt>
      <trkpt lat="48.89896" lon="1.29251">
        <ele>142.80000305176</ele>
        <time>2012-02-20T14:39:13.000Z</time>
      </trkpt>
      <trkpt lat="48.89897" lon="1.29248">
        <ele>142.60000610352</ele>
        <time>2012-02-20T14:39:14.000Z</time>
      </trkpt>
      <trkpt lat="48.89903" lon="1.29232">
        <ele>142</ele>
        <time>2012-02-20T14:39:19.000Z</time>
      </trkpt>
      <trkpt lat="48.89905" lon="1.29225">
        <ele>141.60000610352</ele>
        <time>2012-02-20T14:39:22.000Z</time>
      </trkpt>
      <trkpt lat="48.89907" lon="1.29223">
        <ele>141.60000610352</ele>
        <time>2012-02-20T14:39:23.000Z</time>
      </trkpt>
      <trkpt lat="48.8991" lon="1.29205">
        <ele>140.39999389648</ele>
        <time>2012-02-20T14:39:28.000Z</time>
      </trkpt>
      <trkpt lat="48.89912" lon="1.29202">
        <ele>140.39999389648</ele>
        <time>2012-02-20T14:39:30.000Z</time>
      </trkpt>
      <trkpt lat="48.89915" lon="1.29196">
        <ele>140</ele>
        <time>2012-02-20T14:39:32.000Z</time>
      </trkpt>
      <trkpt lat="48.89926" lon="1.29181">
        <ele>138.80000305176</ele>
        <time>2012-02-20T14:39:38.000Z</time>
      </trkpt>
      <trkpt lat="48.89938" lon="1.29186">
        <ele>138.80000305176</ele>
        <time>2012-02-20T14:39:42.000Z</time>
      </trkpt>
      <trkpt lat="48.89943" lon="1.29188">
        <ele>138.80000305176</ele>
        <time>2012-02-20T14:39:46.000Z</time>
      </trkpt>
      <trkpt lat="48.89945" lon="1.2919">
        <ele>138.80000305176</ele>
        <time>2012-02-20T14:39:47.000Z</time>
      </trkpt>
      <trkpt lat="48.89954" lon="1.29197">
        <ele>139.19999694824</ele>
        <time>2012-02-20T14:39:51.000Z</time>
      </trkpt>
      <trkpt lat="48.89963" lon="1.29206">
        <ele>139.39999389648</ele>
        <time>2012-02-20T14:39:56.000Z</time>
      </trkpt>
      <trkpt lat="48.89978" lon="1.29218">
        <ele>139.80000305176</ele>
        <time>2012-02-20T14:40:03.000Z</time>
      </trkpt>
      <trkpt lat="48.8999" lon="1.2923">
        <ele>140.19999694824</ele>
        <time>2012-02-20T14:40:08.000Z</time>
      </trkpt>
      <trkpt lat="48.90001" lon="1.29236">
        <ele>140.19999694824</ele>
        <time>2012-02-20T14:40:12.000Z</time>
      </trkpt>
      <trkpt lat="48.90006" lon="1.2924">
        <ele>140.19999694824</ele>
        <time>2012-02-20T14:40:14.000Z</time>
      </trkpt>
      <trkpt lat="48.90019" lon="1.29244">
        <ele>140</ele>
        <time>2012-02-20T14:40:19.000Z</time>
      </trkpt>
      <trkpt lat="48.90034" lon="1.29252">
        <ele>140</ele>
        <time>2012-02-20T14:40:25.000Z</time>
      </trkpt>
      <trkpt lat="48.90047" lon="1.29256">
        <ele>139.80000305176</ele>
        <time>2012-02-20T14:40:30.000Z</time>
      </trkpt>
      <trkpt lat="48.90059" lon="1.29258">
        <ele>139.60000610352</ele>
        <time>2012-02-20T14:40:35.000Z</time>
      </trkpt>
      <trkpt lat="48.90071" lon="1.29263">
        <ele>139.39999389648</ele>
        <time>2012-02-20T14:40:39.000Z</time>
      </trkpt>
      <trkpt lat="48.90077" lon="1.29265">
        <ele>139.39999389648</ele>
        <time>2012-02-20T14:40:41.000Z</time>
      </trkpt>
      <trkpt lat="48.90084" lon="1.29266">
        <ele>139.39999389648</ele>
        <time>2012-02-20T14:40:44.000Z</time>
      </trkpt>
      <trkpt lat="48.90101" lon="1.29267">
        <ele>140</ele>
        <time>2012-02-20T14:40:50.000Z</time>
      </trkpt>
      <trkpt lat="48.90115" lon="1.29268">
        <ele>140.39999389648</ele>
        <time>2012-02-20T14:40:55.000Z</time>
      </trkpt>
      <trkpt lat="48.90129" lon="1.29265">
        <ele>140.39999389648</ele>
        <time>2012-02-20T14:41:01.000Z</time>
      </trkpt>
      <trkpt lat="48.90142" lon="1.29262">
        <ele>140.39999389648</ele>
        <time>2012-02-20T14:41:06.000Z</time>
      </trkpt>
      <trkpt lat="48.90156" lon="1.29257">
        <ele>140.39999389648</ele>
        <time>2012-02-20T14:41:12.000Z</time>
      </trkpt>
      <trkpt lat="48.90166" lon="1.29251">
        <ele>140</ele>
        <time>2012-02-20T14:41:17.000Z</time>
      </trkpt>
      <trkpt lat="48.90171" lon="1.29243">
        <ele>139.80000305176</ele>
        <time>2012-02-20T14:41:20.000Z</time>
      </trkpt>
      <trkpt lat="48.90176" lon="1.29232">
        <ele>139.39999389648</ele>
        <time>2012-02-20T14:41:23.000Z</time>
      </trkpt>
      <trkpt lat="48.90182" lon="1.29216">
        <ele>138.60000610352</ele>
        <time>2012-02-20T14:41:28.000Z</time>
      </trkpt>
      <trkpt lat="48.90185" lon="1.29214">
        <ele>138.60000610352</ele>
        <time>2012-02-20T14:41:30.000Z</time>
      </trkpt>
      <trkpt lat="48.90186" lon="1.29212">
        <ele>138.60000610352</ele>
        <time>2012-02-20T14:41:31.000Z</time>
      </trkpt>
      <trkpt lat="48.90189" lon="1.29203">
        <ele>138.19999694824</ele>
        <time>2012-02-20T14:41:34.000Z</time>
      </trkpt>
      <trkpt lat="48.90191" lon="1.29198">
        <ele>138</ele>
        <time>2012-02-20T14:41:36.000Z</time>
      </trkpt>
      <trkpt lat="48.90199" lon="1.29189">
        <ele>137.60000610352</ele>
        <time>2012-02-20T14:41:40.000Z</time>
      </trkpt>
      <trkpt lat="48.90204" lon="1.29172">
        <ele>136.80000305176</ele>
        <time>2012-02-20T14:41:45.000Z</time>
      </trkpt>
      <trkpt lat="48.9021" lon="1.29156">
        <ele>136.60000610352</ele>
        <time>2012-02-20T14:41:50.000Z</time>
      </trkpt>
      <trkpt lat="48.90216" lon="1.29141">
        <ele>136.80000305176</ele>
        <time>2012-02-20T14:41:55.000Z</time>
      </trkpt>
      <trkpt lat="48.90222" lon="1.29128">
        <ele>137</ele>
        <time>2012-02-20T14:41:59.000Z</time>
      </trkpt>
      <trkpt lat="48.90229" lon="1.29111">
        <ele>137</ele>
        <time>2012-02-20T14:42:04.000Z</time>
      </trkpt>
      <trkpt lat="48.90235" lon="1.29094">
        <ele>137.19999694824</ele>
        <time>2012-02-20T14:42:09.000Z</time>
      </trkpt>
      <trkpt lat="48.90244" lon="1.29072">
        <ele>137.19999694824</ele>
        <time>2012-02-20T14:42:15.000Z</time>
      </trkpt>
      <trkpt lat="48.9025" lon="1.29057">
        <ele>137.39999389648</ele>
        <time>2012-02-20T14:42:19.000Z</time>
      </trkpt>
      <trkpt lat="48.90259" lon="1.29037">
        <ele>137.60000610352</ele>
        <time>2012-02-20T14:42:25.000Z</time>
      </trkpt>
      <trkpt lat="48.90267" lon="1.29018">
        <ele>137.80000305176</ele>
        <time>2012-02-20T14:42:31.000Z</time>
      </trkpt>
      <trkpt lat="48.90272" lon="1.28998">
        <ele>138</ele>
        <time>2012-02-20T14:42:37.000Z</time>
      </trkpt>
      <trkpt lat="48.90282" lon="1.28974">
        <ele>138.39999389648</ele>
        <time>2012-02-20T14:42:44.000Z</time>
      </trkpt>
      <trkpt lat="48.90289" lon="1.28957">
        <ele>138.80000305176</ele>
        <time>2012-02-20T14:42:49.000Z</time>
      </trkpt>
      <trkpt lat="48.90296" lon="1.28941">
        <ele>139</ele>
        <time>2012-02-20T14:42:54.000Z</time>
      </trkpt>
      <trkpt lat="48.90301" lon="1.28929">
        <ele>139.19999694824</ele>
        <time>2012-02-20T14:42:58.000Z</time>
      </trkpt>
      <trkpt lat="48.90305" lon="1.28915">
        <ele>139.39999389648</ele>
        <time>2012-02-20T14:43:03.000Z</time>
      </trkpt>
      <trkpt lat="48.90307" lon="1.2891">
        <ele>139.39999389648</ele>
        <time>2012-02-20T14:43:05.000Z</time>
      </trkpt>
      <trkpt lat="48.90309" lon="1.28904">
        <ele>139.39999389648</ele>
        <time>2012-02-20T14:43:07.000Z</time>
      </trkpt>
      <trkpt lat="48.90314" lon="1.28893">
        <ele>139.39999389648</ele>
        <time>2012-02-20T14:43:12.000Z</time>
      </trkpt>
      <trkpt lat="48.90318" lon="1.28878">
        <ele>139.60000610352</ele>
        <time>2012-02-20T14:43:17.000Z</time>
      </trkpt>
      <trkpt lat="48.90325" lon="1.28859">
        <ele>139.80000305176</ele>
        <time>2012-02-20T14:43:23.000Z</time>
      </trkpt>
      <trkpt lat="48.9033" lon="1.28843">
        <ele>139.80000305176</ele>
        <time>2012-02-20T14:43:28.000Z</time>
      </trkpt>
      <trkpt lat="48.90336" lon="1.28827">
        <ele>140</ele>
        <time>2012-02-20T14:43:33.000Z</time>
      </trkpt>
      <trkpt lat="48.90341" lon="1.28812">
        <ele>140</ele>
        <time>2012-02-20T14:43:38.000Z</time>
      </trkpt>
      <trkpt lat="48.90347" lon="1.28795">
        <ele>140</ele>
        <time>2012-02-20T14:43:43.000Z</time>
      </trkpt>
      <trkpt lat="48.90352" lon="1.28778">
        <ele>140</ele>
        <time>2012-02-20T14:43:48.000Z</time>
      </trkpt>
      <trkpt lat="48.90358" lon="1.28764">
        <ele>140</ele>
        <time>2012-02-20T14:43:52.000Z</time>
      </trkpt>
      <trkpt lat="48.90364" lon="1.28747">
        <ele>140</ele>
        <time>2012-02-20T14:43:57.000Z</time>
      </trkpt>
      <trkpt lat="48.90371" lon="1.2873">
        <ele>140.19999694824</ele>
        <time>2012-02-20T14:44:02.000Z</time>
      </trkpt>
      <trkpt lat="48.90377" lon="1.28714">
        <ele>140.19999694824</ele>
        <time>2012-02-20T14:44:07.000Z</time>
      </trkpt>
      <trkpt lat="48.90383" lon="1.287">
        <ele>140.19999694824</ele>
        <time>2012-02-20T14:44:11.000Z</time>
      </trkpt>
      <trkpt lat="48.90389" lon="1.28683">
        <ele>140.19999694824</ele>
        <time>2012-02-20T14:44:16.000Z</time>
      </trkpt>
      <trkpt lat="48.90393" lon="1.2867">
        <ele>140.19999694824</ele>
        <time>2012-02-20T14:44:20.000Z</time>
      </trkpt>
      <trkpt lat="48.904" lon="1.28648">
        <ele>140.39999389648</ele>
        <time>2012-02-20T14:44:26.000Z</time>
      </trkpt>
      <trkpt lat="48.90406" lon="1.28631">
        <ele>140.60000610352</ele>
        <time>2012-02-20T14:44:31.000Z</time>
      </trkpt>
      <trkpt lat="48.90414" lon="1.28609">
        <ele>140.80000305176</ele>
        <time>2012-02-20T14:44:37.000Z</time>
      </trkpt>
      <trkpt lat="48.90421" lon="1.28587">
        <ele>140.80000305176</ele>
        <time>2012-02-20T14:44:43.000Z</time>
      </trkpt>
      <trkpt lat="48.9043" lon="1.28566">
        <ele>141</ele>
        <time>2012-02-20T14:44:49.000Z</time>
      </trkpt>
      <trkpt lat="48.90437" lon="1.28543">
        <ele>141.19999694824</ele>
        <time>2012-02-20T14:44:55.000Z</time>
      </trkpt>
      <trkpt lat="48.90442" lon="1.28525">
        <ele>141.39999389648</ele>
        <time>2012-02-20T14:45:00.000Z</time>
      </trkpt>
      <trkpt lat="48.90449" lon="1.28508">
        <ele>141.60000610352</ele>
        <time>2012-02-20T14:45:05.000Z</time>
      </trkpt>
      <trkpt lat="48.90456" lon="1.2849">
        <ele>141.60000610352</ele>
        <time>2012-02-20T14:45:10.000Z</time>
      </trkpt>
      <trkpt lat="48.90462" lon="1.28471">
        <ele>141.39999389648</ele>
        <time>2012-02-20T14:45:15.000Z</time>
      </trkpt>
      <trkpt lat="48.9047" lon="1.28455">
        <ele>141.19999694824</ele>
        <time>2012-02-20T14:45:20.000Z</time>
      </trkpt>
      <trkpt lat="48.90478" lon="1.28433">
        <ele>140.80000305176</ele>
        <time>2012-02-20T14:45:26.000Z</time>
      </trkpt>
      <trkpt lat="48.90483" lon="1.28418">
        <ele>140.60000610352</ele>
        <time>2012-02-20T14:45:30.000Z</time>
      </trkpt>
      <trkpt lat="48.90489" lon="1.284">
        <ele>140.60000610352</ele>
        <time>2012-02-20T14:45:35.000Z</time>
      </trkpt>
      <trkpt lat="48.90498" lon="1.28382">
        <ele>140.39999389648</ele>
        <time>2012-02-20T14:45:40.000Z</time>
      </trkpt>
      <trkpt lat="48.90505" lon="1.28362">
        <ele>140.60000610352</ele>
        <time>2012-02-20T14:45:46.000Z</time>
      </trkpt>
      <trkpt lat="48.9051" lon="1.28343">
        <ele>140.80000305176</ele>
        <time>2012-02-20T14:45:51.000Z</time>
      </trkpt>
      <trkpt lat="48.90517" lon="1.28326">
        <ele>141</ele>
        <time>2012-02-20T14:45:56.000Z</time>
      </trkpt>
      <trkpt lat="48.90523" lon="1.28311">
        <ele>140.80000305176</ele>
        <time>2012-02-20T14:46:00.000Z</time>
      </trkpt>
      <trkpt lat="48.90527" lon="1.28301">
        <ele>140.80000305176</ele>
        <time>2012-02-20T14:46:03.000Z</time>
      </trkpt>
      <trkpt lat="48.90537" lon="1.28277">
        <ele>140.60000610352</ele>
        <time>2012-02-20T14:46:09.000Z</time>
      </trkpt>
      <trkpt lat="48.90545" lon="1.28261">
        <ele>140.60000610352</ele>
        <time>2012-02-20T14:46:14.000Z</time>
      </trkpt>
      <trkpt lat="48.90547" lon="1.28261">
        <ele>140.60000610352</ele>
        <time>2012-02-20T14:46:17.000Z</time>
      </trkpt>
      <trkpt lat="48.90548" lon="1.28262">
        <ele>140.60000610352</ele>
        <time>2012-02-20T14:46:18.000Z</time>
      </trkpt>
      <trkpt lat="48.90553" lon="1.28276">
        <ele>140.80000305176</ele>
        <time>2012-02-20T14:46:22.000Z</time>
      </trkpt>
      <trkpt lat="48.90558" lon="1.28295">
        <ele>140.80000305176</ele>
        <time>2012-02-20T14:46:27.000Z</time>
      </trkpt>
      <trkpt lat="48.90561" lon="1.28309">
        <ele>141</ele>
        <time>2012-02-20T14:46:31.000Z</time>
      </trkpt>
      <trkpt lat="48.90562" lon="1.28321">
        <ele>141</ele>
        <time>2012-02-20T14:46:36.000Z</time>
      </trkpt>
      <trkpt lat="48.90563" lon="1.28327">
        <ele>141</ele>
        <time>2012-02-20T14:46:39.000Z</time>
      </trkpt>
      <trkpt lat="48.90563" lon="1.2833">
        <ele>141</ele>
        <time>2012-02-20T14:46:41.000Z</time>
      </trkpt>
      <trkpt lat="48.90561" lon="1.28333">
        <ele>141</ele>
        <time>2012-02-20T14:46:47.000Z</time>
      </trkpt>
      <trkpt lat="48.90563" lon="1.28331">
        <ele>141</ele>
        <time>2012-02-20T14:46:51.000Z</time>
      </trkpt>
      <trkpt lat="48.90564" lon="1.28331">
        <ele>141</ele>
        <time>2012-02-20T14:46:52.000Z</time>
      </trkpt>
      <trkpt lat="48.90565" lon="1.28329">
        <ele>141</ele>
        <time>2012-02-20T14:46:55.000Z</time>
      </trkpt>
      <trkpt lat="48.90569" lon="1.28328">
        <ele>141</ele>
        <time>2012-02-20T14:46:58.000Z</time>
      </trkpt>
      <trkpt lat="48.9057" lon="1.28327">
        <ele>141</ele>
        <time>2012-02-20T14:47:00.000Z</time>
      </trkpt>
      <trkpt lat="48.90571" lon="1.28326">
        <ele>141</ele>
        <time>2012-02-20T14:47:01.000Z</time>
      </trkpt>
      <trkpt lat="48.90578" lon="1.28321">
        <ele>141</ele>
        <time>2012-02-20T14:47:04.000Z</time>
      </trkpt>
      <trkpt lat="48.90588" lon="1.28316">
        <ele>141.19999694824</ele>
        <time>2012-02-20T14:47:09.000Z</time>
      </trkpt>
      <trkpt lat="48.906" lon="1.28315">
        <ele>141.39999389648</ele>
        <time>2012-02-20T14:47:14.000Z</time>
      </trkpt>
      <trkpt lat="48.90602" lon="1.28319">
        <ele>141.39999389648</ele>
        <time>2012-02-20T14:47:17.000Z</time>
      </trkpt>
      <trkpt lat="48.90603" lon="1.28321">
        <ele>141.39999389648</ele>
        <time>2012-02-20T14:47:18.000Z</time>
      </trkpt>
      <trkpt lat="48.90613" lon="1.28338">
        <ele>141.60000610352</ele>
        <time>2012-02-20T14:47:23.000Z</time>
      </trkpt>
      <trkpt lat="48.90619" lon="1.28358">
        <ele>141.60000610352</ele>
        <time>2012-02-20T14:47:28.000Z</time>
      </trkpt>
      <trkpt lat="48.90628" lon="1.28381">
        <ele>141.39999389648</ele>
        <time>2012-02-20T14:47:34.000Z</time>
      </trkpt>
      <trkpt lat="48.90635" lon="1.28397">
        <ele>141.39999389648</ele>
        <time>2012-02-20T14:47:39.000Z</time>
      </trkpt>
      <trkpt lat="48.90644" lon="1.28421">
        <ele>141.39999389648</ele>
        <time>2012-02-20T14:47:45.000Z</time>
      </trkpt>
      <trkpt lat="48.9065" lon="1.28435">
        <ele>141.39999389648</ele>
        <time>2012-02-20T14:47:49.000Z</time>
      </trkpt>
      <trkpt lat="48.90654" lon="1.28449">
        <ele>141.39999389648</ele>
        <time>2012-02-20T14:47:55.000Z</time>
      </trkpt>
      <trkpt lat="48.90663" lon="1.28444">
        <ele>141.60000610352</ele>
        <time>2012-02-20T14:47:59.000Z</time>
      </trkpt>
      <trkpt lat="48.90676" lon="1.28435">
        <ele>142</ele>
        <time>2012-02-20T14:48:04.000Z</time>
      </trkpt>
      <trkpt lat="48.9069" lon="1.28427">
        <ele>142.19999694824</ele>
        <time>2012-02-20T14:48:09.000Z</time>
      </trkpt>
      <trkpt lat="48.90697" lon="1.28418">
        <ele>142.39999389648</ele>
        <time>2012-02-20T14:48:13.000Z</time>
      </trkpt>
      <trkpt lat="48.90698" lon="1.28417">
        <ele>142.39999389648</ele>
        <time>2012-02-20T14:48:14.000Z</time>
      </trkpt>
      <trkpt lat="48.90708" lon="1.28414">
        <ele>142.60000610352</ele>
        <time>2012-02-20T14:48:19.000Z</time>
      </trkpt>
      <trkpt lat="48.90719" lon="1.28404">
        <ele>142.80000305176</ele>
        <time>2012-02-20T14:48:23.000Z</time>
      </trkpt>
      <trkpt lat="48.90721" lon="1.28394">
        <ele>143</ele>
        <time>2012-02-20T14:48:27.000Z</time>
      </trkpt>
      <trkpt lat="48.90721" lon="1.2839">
        <ele>143</ele>
        <time>2012-02-20T14:48:31.000Z</time>
      </trkpt>
      <trkpt lat="48.90721" lon="1.28387">
        <ele>143</ele>
        <time>2012-02-20T14:48:32.000Z</time>
      </trkpt>
      <trkpt lat="48.90722" lon="1.28382">
        <ele>143</ele>
        <time>2012-02-20T14:48:33.000Z</time>
      </trkpt>
      <trkpt lat="48.90728" lon="1.28374">
        <ele>143.19999694824</ele>
        <time>2012-02-20T14:48:36.000Z</time>
      </trkpt>
      <trkpt lat="48.90738" lon="1.28369">
        <ele>143.39999389648</ele>
        <time>2012-02-20T14:48:39.000Z</time>
      </trkpt>
      <trkpt lat="48.90741" lon="1.28367">
        <ele>143.39999389648</ele>
        <time>2012-02-20T14:48:40.000Z</time>
      </trkpt>
      <trkpt lat="48.90758" lon="1.28361">
        <ele>143.80000305176</ele>
        <time>2012-02-20T14:48:46.000Z</time>
      </trkpt>
      <trkpt lat="48.90778" lon="1.28353">
        <ele>143.80000305176</ele>
        <time>2012-02-20T14:48:52.000Z</time>
      </trkpt>
      <trkpt lat="48.90779" lon="1.28352">
        <ele>143.80000305176</ele>
        <time>2012-02-20T14:48:53.000Z</time>
      </trkpt>
      <trkpt lat="48.90788" lon="1.28338">
        <ele>144</ele>
        <time>2012-02-20T14:48:57.000Z</time>
      </trkpt>
      <trkpt lat="48.90799" lon="1.28315">
        <ele>144</ele>
        <time>2012-02-20T14:49:03.000Z</time>
      </trkpt>
      <trkpt lat="48.908" lon="1.28293">
        <ele>144</ele>
        <time>2012-02-20T14:49:08.000Z</time>
      </trkpt>
      <trkpt lat="48.90798" lon="1.28275">
        <ele>144</ele>
        <time>2012-02-20T14:49:12.000Z</time>
      </trkpt>
      <trkpt lat="48.90795" lon="1.28252">
        <ele>144</ele>
        <time>2012-02-20T14:49:17.000Z</time>
      </trkpt>
      <trkpt lat="48.90793" lon="1.28229">
        <ele>144.19999694824</ele>
        <time>2012-02-20T14:49:22.000Z</time>
      </trkpt>
      <trkpt lat="48.90791" lon="1.28217">
        <ele>144.19999694824</ele>
        <time>2012-02-20T14:49:25.000Z</time>
      </trkpt>
    </trkseg>
  </trk>
</gpx>